Adam-Beyer, Nicole (2026): Master tracks in different resolutions of ALKOR cruise AL646, Kiel - Kiel, 2026-02-06 - 2026-02-28 [dataset]. GEOMAR - Helmholtz Centre for Ocean Research Kiel, PANGAEA, https://doi.pangaea.de/10.1594/PANGAEA.993760 (DOI registration in progress)
Always quote citation above when using data! You can download the citation in several formats below.
Published: 2026-04-22
Abstract:
Raw data acquired by position sensors on board RV Alkor during expedition AL646 were processed to receive a validated master track which can be used as reference of further expedition data. During AL646 data from the Seapath 330 system, the Furuno GP-170 receiver and the SAAB R6 system were used to calculate the mastertrack. Data were downloaded from DAVIS SHIP data base (https://dship.o2a-data.de) with a resolution of 1 sec. Processing and evaluation of the data is outlined in the data processing report. Processed data are provided as a master track with 1 sec resolution derived from the position sensors' data selected by priority and a generalized track with a reduced set of the most significant positions of the master track.
Other version:
Adam-Beyer, Nicole (2026): Master track of ALKOR cruise AL646 in 1 sec resolution (zipped, 81 MB) [dataset]. GEOMAR - Helmholtz Centre for Ocean Research Kiel, PANGAEA, https://doi.pangaea.de/10.1594/PANGAEA.993761
Data processing report:
Further details:
Project(s):
DAM Underway Research Data (DAM_Underway)
Coverage:
Median Latitude: 55.693636 * Median Longitude: 14.892848 * South-bound Latitude: 54.328487 * West-bound Longitude: 9.839960 * North-bound Latitude: 57.463566 * East-bound Longitude: 21.580308
Date/Time Start: 2026-02-06T05:16:57 * Date/Time End: 2026-02-28T12:38:36
Event(s):
AL646-track * Latitude Start: 54.328523 * Longitude Start: 10.179434 * Latitude End: 54.328509 * Longitude End: 10.179466 * Date/Time Start: 2026-02-06T04:56:57 * Date/Time End: 2026-02-28T12:38:36 * Campaign: AL646 (Seafloor AE II) * Basis: Alkor (1990) * Method/Device: Underway cruise track measurements (CT) * Comment: Kiel - Kiel
Comment:
This dataset contains the master track in 10 min resolution, for other resolutions please see "Other version" references.
Parameter(s):
License:
Creative Commons Attribution 4.0 International (CC-BY-4.0)
Status:
Curation Level: Enhanced curation (CurationLevelC)
Size:
6428 data points
Data
| 1 Date/Time | 2 Latitude | 3 Longitude | 4 Speed [kn] | 5 Course [deg] |
|---|---|---|---|---|
| 2026-02-06T05:16 | 54.32851 | 10.17943 | 0.005 | 147.5 |
| 2026-02-06T05:26 | 54.32852 | 10.17943 | 0.003 | 351.7 |
| 2026-02-06T05:36 | 54.32852 | 10.17943 | 0.002 | 302.7 |
| 2026-02-06T05:46 | 54.32853 | 10.17943 | 0.004 | 25.1 |
| 2026-02-06T05:56 | 54.32852 | 10.17943 | 0.004 | 176.7 |
| 2026-02-06T06:06 | 54.32854 | 10.17944 | 0.005 | 5.1 |
| 2026-02-06T06:16 | 54.32853 | 10.17944 | 0.002 | 160.7 |
| 2026-02-06T06:26 | 54.32854 | 10.17944 | 0.003 | 0.0 |
| 2026-02-06T06:36 | 54.32852 | 10.17942 | 0.008 | 205.1 |
| 2026-02-06T06:46 | 54.32854 | 10.17943 | 0.008 | 8.7 |
| 2026-02-06T06:56 | 54.32852 | 10.17942 | 0.008 | 192.0 |
| 2026-02-06T07:06 | 54.32853 | 10.17943 | 0.004 | 35.0 |
| 2026-02-06T07:16 | 54.32852 | 10.17943 | 0.005 | 180.4 |
| 2026-02-06T07:26 | 54.32852 | 10.17944 | 0.002 | 60.8 |
| 2026-02-06T07:36 | 54.32852 | 10.17945 | 0.002 | 25.1 |
| 2026-02-06T07:46 | 54.32852 | 10.17944 | 0.002 | 232.8 |
| 2026-02-06T07:56 | 54.32851 | 10.17943 | 0.003 | 219.9 |
| 2026-02-06T08:06 | 54.32851 | 10.17942 | 0.003 | 261.9 |
| 2026-02-06T08:16 | 54.32851 | 10.17942 | 0.001 | 71.1 |
| 2026-02-06T08:26 | 54.32853 | 10.17941 | 0.005 | 329.7 |
| 2026-02-06T08:36 | 54.32853 | 10.17941 | 0.003 | 16.3 |
| 2026-02-06T08:46 | 54.32851 | 10.17943 | 0.009 | 155.7 |
| 2026-02-06T08:56 | 54.32849 | 10.17944 | 0.010 | 159.5 |
| 2026-02-06T09:06 | 54.32849 | 10.17944 | 0.001 | 310.6 |
| 2026-02-06T09:16 | 54.32849 | 10.17943 | 0.003 | 307.9 |
| 2026-02-06T09:26 | 54.32853 | 10.17944 | 0.014 | 9.9 |
| 2026-02-06T09:36 | 54.32851 | 10.17944 | 0.008 | 185.8 |
| 2026-02-06T09:46 | 54.32853 | 10.17944 | 0.009 | 5.3 |
| 2026-02-06T09:56 | 54.32853 | 10.17944 | 0.002 | 210.3 |
| 2026-02-06T10:06 | 54.32852 | 10.17944 | 0.004 | 171.7 |
| 2026-02-06T10:16 | 54.32852 | 10.17944 | 0.001 | 0.0 |
| 2026-02-06T10:26 | 54.32853 | 10.17945 | 0.006 | 12.4 |
| 2026-02-06T10:36 | 54.32851 | 10.17944 | 0.007 | 189.9 |
| 2026-02-06T10:46 | 54.32853 | 10.17945 | 0.008 | 16.3 |
| 2026-02-06T10:56 | 54.32853 | 10.17944 | 0.002 | 225.7 |
| 2026-02-06T11:06 | 54.32851 | 10.17945 | 0.008 | 175.6 |
| 2026-02-06T11:16 | 54.32851 | 10.17945 | 0.003 | 355.2 |
| 2026-02-06T11:26 | 54.32853 | 10.17943 | 0.007 | 325.0 |
| 2026-02-06T11:36 | 54.32852 | 10.17945 | 0.005 | 136.3 |
| 2026-02-06T11:46 | 54.32853 | 10.17944 | 0.004 | 340.7 |
| 2026-02-06T11:56 | 54.32852 | 10.17943 | 0.005 | 208.2 |
| 2026-02-06T12:06 | 54.32851 | 10.17943 | 0.003 | 157.3 |
| 2026-02-06T12:16 | 54.32853 | 10.17945 | 0.007 | 24.1 |
| 2026-02-06T12:26 | 54.32853 | 10.17944 | 0.001 | 270.0 |
| 2026-02-06T12:36 | 54.32851 | 10.17945 | 0.005 | 165.9 |
| 2026-02-06T12:46 | 54.32851 | 10.17945 | 0.002 | 130.6 |
| 2026-02-06T12:56 | 54.32852 | 10.17945 | 0.004 | 348.0 |
| 2026-02-06T13:06 | 54.32852 | 10.17944 | 0.002 | 320.7 |
| 2026-02-06T13:16 | 54.32852 | 10.17945 | 0.002 | 165.1 |
| 2026-02-06T13:26 | 54.32851 | 10.17945 | 0.002 | 152.0 |
| 2026-02-06T13:36 | 54.32859 | 10.17924 | 0.054 | 302.5 |
| 2026-02-06T13:46 | 54.33239 | 10.16886 | 2.577 | 302.0 |
| 2026-02-06T13:56 | 54.34928 | 10.16655 | 6.110 | 355.4 |
| 2026-02-06T14:06 | 54.37573 | 10.18452 | 10.254 | 21.6 |
| 2026-02-06T14:16 | 54.40121 | 10.20539 | 10.179 | 25.6 |
| 2026-02-06T14:26 | 54.42769 | 10.22762 | 10.626 | 26.1 |
| 2026-02-06T14:36 | 54.45180 | 10.25749 | 10.721 | 35.8 |
| 2026-02-06T14:46 | 54.47378 | 10.29005 | 10.463 | 40.8 |
| 2026-02-06T14:56 | 54.49354 | 10.32669 | 10.482 | 47.2 |
| 2026-02-06T15:06 | 54.50435 | 10.37379 | 10.622 | 68.5 |
| 2026-02-06T15:16 | 54.51611 | 10.41907 | 10.398 | 65.9 |
| 2026-02-06T15:26 | 54.52733 | 10.46494 | 10.433 | 67.2 |
| 2026-02-06T15:36 | 54.53877 | 10.51200 | 10.692 | 67.3 |
| 2026-02-06T15:46 | 54.55026 | 10.55896 | 10.678 | 67.2 |
| 2026-02-06T15:56 | 54.55828 | 10.60774 | 10.620 | 74.2 |
| 2026-02-06T16:06 | 54.56119 | 10.65930 | 10.851 | 84.4 |
| 2026-02-06T16:16 | 54.56347 | 10.71128 | 10.919 | 85.7 |
| 2026-02-06T16:26 | 54.56571 | 10.76341 | 10.947 | 85.8 |
| 2026-02-06T16:36 | 54.56808 | 10.81530 | 10.902 | 85.5 |
| 2026-02-06T16:46 | 54.57102 | 10.86724 | 10.930 | 84.4 |
| 2026-02-06T16:56 | 54.57473 | 10.91865 | 10.849 | 82.9 |
| 2026-02-06T17:06 | 54.57798 | 10.96989 | 10.792 | 83.8 |
| 2026-02-06T17:16 | 54.58074 | 11.02103 | 10.754 | 84.7 |
| 2026-02-06T17:26 | 54.58323 | 11.07232 | 10.774 | 85.2 |
| 2026-02-06T17:36 | 54.58343 | 11.12373 | 10.764 | 89.6 |
| 2026-02-06T17:46 | 54.57289 | 11.17219 | 10.834 | 110.5 |
| 2026-02-06T17:56 | 54.56038 | 11.22029 | 11.038 | 114.1 |
| 2026-02-06T18:06 | 54.54926 | 11.26804 | 10.776 | 111.8 |
| 2026-02-06T18:16 | 54.53814 | 11.31514 | 10.652 | 112.1 |
| 2026-02-06T18:26 | 54.52592 | 11.36172 | 10.712 | 114.3 |
| 2026-02-06T18:36 | 54.51299 | 11.40817 | 10.798 | 115.6 |
| 2026-02-06T18:46 | 54.49968 | 11.45394 | 10.730 | 116.5 |
| 2026-02-06T18:56 | 54.48555 | 11.49898 | 10.737 | 118.3 |
| 2026-02-06T19:06 | 54.47112 | 11.54380 | 10.749 | 118.9 |
| 2026-02-06T19:16 | 54.45836 | 11.58872 | 10.493 | 116.0 |
| 2026-02-06T19:26 | 54.44563 | 11.63338 | 10.443 | 116.1 |
| 2026-02-06T19:36 | 54.43269 | 11.67792 | 10.455 | 116.5 |
| 2026-02-06T19:46 | 54.41988 | 11.72215 | 10.380 | 116.4 |
| 2026-02-06T19:56 | 54.40671 | 11.76666 | 10.491 | 116.9 |
| 2026-02-06T20:06 | 54.39787 | 11.81323 | 10.297 | 108.0 |
| 2026-02-06T20:16 | 54.39764 | 11.86403 | 10.684 | 90.4 |
| 2026-02-06T20:26 | 54.39732 | 11.91461 | 10.638 | 90.6 |
| 2026-02-06T20:36 | 54.39630 | 11.96529 | 10.666 | 92.0 |
| 2026-02-06T20:46 | 54.39427 | 12.01646 | 10.786 | 93.9 |
| 2026-02-06T20:56 | 54.39216 | 12.06761 | 10.784 | 94.0 |
| 2026-02-06T21:06 | 54.39166 | 12.11983 | 10.986 | 90.9 |
| 2026-02-06T21:16 | 54.39852 | 12.16918 | 10.669 | 76.6 |
| 2026-02-06T21:26 | 54.42111 | 12.20501 | 11.093 | 42.8 |
| 2026-02-06T21:36 | 54.44528 | 12.23925 | 11.297 | 39.5 |
| 2026-02-06T21:46 | 54.47268 | 12.26296 | 11.061 | 26.7 |
| 2026-02-06T21:56 | 54.50247 | 12.27902 | 11.254 | 17.4 |
| 2026-02-06T22:06 | 54.53196 | 12.29511 | 11.154 | 17.6 |
| 2026-02-06T22:16 | 54.55960 | 12.31662 | 10.933 | 24.3 |
| 2026-02-06T22:26 | 54.58520 | 12.34461 | 10.932 | 32.4 |
| 2026-02-06T22:36 | 54.60292 | 12.38644 | 10.838 | 53.9 |
| 2026-02-06T22:46 | 54.61994 | 12.42993 | 10.972 | 56.0 |
| 2026-02-06T22:56 | 54.63636 | 12.47177 | 10.563 | 55.9 |
| 2026-02-06T23:06 | 54.65252 | 12.51255 | 10.325 | 55.6 |
| 2026-02-06T23:16 | 54.66882 | 12.55339 | 10.360 | 55.4 |
| 2026-02-06T23:26 | 54.68475 | 12.59356 | 10.168 | 55.6 |
| 2026-02-06T23:36 | 54.70074 | 12.63388 | 10.200 | 55.6 |
| 2026-02-06T23:46 | 54.71651 | 12.67332 | 10.004 | 55.4 |
| 2026-02-06T23:56 | 54.73215 | 12.71214 | 9.868 | 55.1 |
| 2026-02-07T00:06 | 54.74688 | 12.75211 | 9.886 | 57.5 |
| 2026-02-07T00:16 | 54.75852 | 12.79393 | 9.676 | 64.3 |
| 2026-02-07T00:26 | 54.76718 | 12.83725 | 9.553 | 70.9 |
| 2026-02-07T00:36 | 54.77458 | 12.87971 | 9.241 | 73.2 |
| 2026-02-07T00:46 | 54.78188 | 12.92199 | 9.193 | 73.4 |
| 2026-02-07T00:56 | 54.78916 | 12.96582 | 9.502 | 73.9 |
| 2026-02-07T01:06 | 54.79621 | 13.00832 | 9.208 | 74.0 |
| 2026-02-07T01:16 | 54.80364 | 13.05213 | 9.508 | 73.6 |
| 2026-02-07T01:26 | 54.81095 | 13.09440 | 9.188 | 73.3 |
| 2026-02-07T01:36 | 54.81938 | 13.13761 | 9.494 | 71.3 |
| 2026-02-07T01:46 | 54.82734 | 13.17940 | 9.159 | 71.7 |
| 2026-02-07T01:56 | 54.83550 | 13.22069 | 9.080 | 71.1 |
| 2026-02-07T02:06 | 54.84466 | 13.26176 | 9.159 | 68.9 |
| 2026-02-07T02:16 | 54.85517 | 13.30331 | 9.436 | 66.3 |
| 2026-02-07T02:26 | 54.86549 | 13.34419 | 9.278 | 66.3 |
| 2026-02-07T02:36 | 54.87522 | 13.38698 | 9.564 | 68.5 |
| 2026-02-07T02:46 | 54.88361 | 13.42922 | 9.283 | 71.0 |
| 2026-02-07T02:56 | 54.89217 | 13.47221 | 9.452 | 70.9 |
| 2026-02-07T03:06 | 54.90053 | 13.51402 | 9.195 | 70.8 |
| 2026-02-07T03:16 | 54.90868 | 13.55479 | 8.962 | 70.9 |
| 2026-02-07T03:26 | 54.91713 | 13.59644 | 9.169 | 70.6 |
| 2026-02-07T03:36 | 54.92536 | 13.63720 | 8.968 | 70.7 |
| 2026-02-07T03:46 | 54.93417 | 13.67988 | 9.412 | 70.3 |
| 2026-02-07T03:56 | 54.94202 | 13.72394 | 9.573 | 72.8 |
| 2026-02-07T04:06 | 54.94947 | 13.76785 | 9.497 | 73.6 |
| 2026-02-07T04:16 | 54.95694 | 13.81188 | 9.525 | 73.5 |
| 2026-02-07T04:26 | 54.96509 | 13.85461 | 9.335 | 71.7 |
| 2026-02-07T04:36 | 54.97351 | 13.89828 | 9.552 | 71.5 |
| 2026-02-07T04:46 | 54.98213 | 13.94287 | 9.754 | 71.4 |
| 2026-02-07T04:56 | 54.99063 | 13.98670 | 9.586 | 71.3 |
| 2026-02-07T05:06 | 54.99936 | 14.03060 | 9.627 | 70.9 |
| 2026-02-07T05:16 | 55.00830 | 14.07475 | 9.700 | 70.6 |
| 2026-02-07T05:26 | 55.01750 | 14.11872 | 9.692 | 70.0 |
| 2026-02-07T05:36 | 55.03724 | 14.15004 | 9.629 | 42.3 |
| 2026-02-07T05:46 | 55.05877 | 14.18045 | 9.992 | 39.0 |
| 2026-02-07T05:56 | 55.07951 | 14.21127 | 9.826 | 40.4 |
| 2026-02-07T06:06 | 55.09975 | 14.24146 | 9.602 | 40.5 |
| 2026-02-07T06:16 | 55.11992 | 14.27261 | 9.711 | 41.5 |
| 2026-02-07T06:26 | 55.14006 | 14.30449 | 9.800 | 42.2 |
| 2026-02-07T06:36 | 55.15968 | 14.33601 | 9.610 | 42.6 |
| 2026-02-07T06:46 | 55.17945 | 14.36818 | 9.740 | 43.0 |
| 2026-02-07T06:56 | 55.20024 | 14.39663 | 9.517 | 38.0 |
| 2026-02-07T07:06 | 55.22182 | 14.42118 | 9.282 | 33.0 |
| 2026-02-07T07:16 | 55.24298 | 14.44729 | 9.333 | 35.2 |
| 2026-02-07T07:26 | 55.26366 | 14.47375 | 9.234 | 36.1 |
| 2026-02-07T07:36 | 55.28428 | 14.50052 | 9.253 | 36.5 |
| 2026-02-07T07:46 | 55.30452 | 14.52721 | 9.130 | 37.0 |
| 2026-02-07T07:56 | 55.32449 | 14.55290 | 8.928 | 36.3 |
| 2026-02-07T08:06 | 55.34397 | 14.57761 | 8.666 | 35.9 |
| 2026-02-07T08:16 | 55.36314 | 14.60380 | 8.756 | 37.9 |
| 2026-02-07T08:26 | 55.38168 | 14.62958 | 8.526 | 38.4 |
| 2026-02-07T08:36 | 55.39796 | 14.65429 | 7.757 | 40.8 |
| 2026-02-07T08:46 | 55.41280 | 14.68003 | 7.514 | 44.6 |
| 2026-02-07T08:56 | 55.42760 | 14.70653 | 7.617 | 45.5 |
| 2026-02-07T09:06 | 55.44331 | 14.73534 | 8.181 | 46.2 |
| 2026-02-07T09:16 | 55.45882 | 14.76367 | 8.060 | 46.0 |
| 2026-02-07T09:26 | 55.47553 | 14.79278 | 8.475 | 44.7 |
| 2026-02-07T09:36 | 55.49259 | 14.82098 | 8.435 | 43.2 |
| 2026-02-07T09:46 | 55.51296 | 14.83965 | 8.278 | 27.5 |
| 2026-02-07T09:56 | 55.53443 | 14.85913 | 8.703 | 27.2 |
| 2026-02-07T10:06 | 55.55523 | 14.87736 | 8.374 | 26.4 |
| 2026-02-07T10:16 | 55.57659 | 14.89645 | 8.633 | 26.9 |
| 2026-02-07T10:26 | 55.59784 | 14.91533 | 8.576 | 26.7 |
| 2026-02-07T10:36 | 55.61918 | 14.93340 | 8.530 | 25.6 |
| 2026-02-07T10:46 | 55.64007 | 14.95036 | 8.286 | 24.7 |
| 2026-02-07T10:56 | 55.66024 | 14.96660 | 7.991 | 24.5 |
| 2026-02-07T11:06 | 55.68182 | 14.98569 | 8.696 | 26.6 |
| 2026-02-07T11:16 | 55.70062 | 15.00180 | 7.532 | 25.8 |
| 2026-02-07T11:26 | 55.72138 | 15.01832 | 8.203 | 24.2 |
| 2026-02-07T11:36 | 55.74185 | 15.03597 | 8.206 | 25.9 |
| 2026-02-07T11:46 | 55.76234 | 15.05343 | 8.198 | 25.7 |
| 2026-02-07T11:56 | 55.77366 | 15.08300 | 7.263 | 55.8 |
| 2026-02-07T12:06 | 55.77965 | 15.11975 | 7.774 | 73.9 |
| 2026-02-07T12:16 | 55.78564 | 15.15675 | 7.822 | 73.9 |
| 2026-02-07T12:26 | 55.79117 | 15.19362 | 7.749 | 75.1 |
| 2026-02-07T12:36 | 55.80533 | 15.22379 | 7.975 | 50.2 |
| 2026-02-07T12:46 | 55.82086 | 15.25439 | 8.362 | 48.0 |
| 2026-02-07T12:56 | 55.83626 | 15.28397 | 8.175 | 47.2 |
| 2026-02-07T13:06 | 55.85167 | 15.31313 | 8.115 | 46.8 |
| 2026-02-07T13:16 | 55.86763 | 15.34275 | 8.319 | 46.2 |
| 2026-02-07T13:26 | 55.88406 | 15.37248 | 8.449 | 45.5 |
| 2026-02-07T13:36 | 55.90082 | 15.40313 | 8.664 | 45.8 |
| 2026-02-07T13:46 | 55.91683 | 15.43418 | 8.534 | 47.4 |
| 2026-02-07T13:56 | 55.91915 | 15.47375 | 8.055 | 84.0 |
| 2026-02-07T14:06 | 55.92075 | 15.51461 | 8.293 | 86.0 |
| 2026-02-07T14:16 | 55.92274 | 15.55590 | 8.389 | 85.1 |
| 2026-02-07T14:26 | 55.92468 | 15.59589 | 8.124 | 85.0 |
| 2026-02-07T14:36 | 55.92662 | 15.63677 | 8.305 | 85.1 |
| 2026-02-07T14:46 | 55.92860 | 15.67841 | 8.457 | 85.2 |
| 2026-02-07T14:56 | 55.93017 | 15.71828 | 8.090 | 86.0 |
| 2026-02-07T15:06 | 55.93127 | 15.75783 | 8.013 | 87.1 |
| 2026-02-07T15:16 | 55.93196 | 15.79699 | 7.931 | 88.2 |
| 2026-02-07T15:26 | 55.93224 | 15.83572 | 7.837 | 89.2 |
| 2026-02-07T15:36 | 55.94525 | 15.86579 | 7.682 | 52.4 |
| 2026-02-07T15:46 | 55.96228 | 15.89438 | 8.435 | 43.3 |
| 2026-02-07T15:56 | 55.97924 | 15.92250 | 8.351 | 42.9 |
| 2026-02-07T16:06 | 55.99642 | 15.95189 | 8.579 | 43.8 |
| 2026-02-07T16:16 | 56.01355 | 15.98136 | 8.577 | 43.9 |
| 2026-02-07T16:26 | 56.03272 | 16.00559 | 8.470 | 35.3 |
| 2026-02-07T16:36 | 56.05177 | 16.02969 | 8.413 | 35.3 |
| 2026-02-07T16:46 | 56.07088 | 16.05425 | 8.487 | 35.7 |
| 2026-02-07T16:56 | 56.09134 | 16.08006 | 9.026 | 35.2 |
| 2026-02-07T17:06 | 56.11146 | 16.10448 | 8.767 | 34.1 |
| 2026-02-07T17:16 | 56.13145 | 16.13113 | 8.985 | 36.7 |
| 2026-02-07T17:26 | 56.15204 | 16.15965 | 9.385 | 37.7 |
| 2026-02-07T17:36 | 56.17306 | 16.18840 | 9.533 | 37.3 |
| 2026-02-07T17:46 | 56.19366 | 16.21998 | 9.772 | 40.5 |
| 2026-02-07T17:56 | 56.21408 | 16.25385 | 10.025 | 42.8 |
| 2026-02-07T18:06 | 56.22714 | 16.27464 | 6.293 | 41.5 |
| 2026-02-07T18:16 | 56.23624 | 16.28910 | 4.381 | 41.5 |
| 2026-02-07T18:26 | 56.24111 | 16.29679 | 2.338 | 41.3 |
| 2026-02-07T18:36 | 56.24399 | 16.30094 | 1.334 | 38.7 |
| 2026-02-07T18:46 | 56.24600 | 16.30382 | 0.926 | 38.6 |
| 2026-02-07T18:56 | 56.24712 | 16.30485 | 0.453 | 27.1 |
| 2026-02-07T19:06 | 56.24711 | 16.30466 | 0.038 | 266.7 |
| 2026-02-07T19:16 | 56.24665 | 16.30610 | 0.334 | 120.1 |
| 2026-02-07T19:26 | 56.24740 | 16.30563 | 0.286 | 340.6 |
| 2026-02-07T19:36 | 56.24793 | 16.30613 | 0.217 | 27.9 |
| 2026-02-07T19:46 | 56.24835 | 16.30662 | 0.182 | 32.9 |
| 2026-02-07T19:56 | 56.24829 | 16.30650 | 0.034 | 230.1 |
| 2026-02-07T20:06 | 56.24857 | 16.30562 | 0.203 | 299.4 |
| 2026-02-07T20:16 | 56.24900 | 16.30522 | 0.173 | 332.7 |
| 2026-02-07T20:26 | 56.24873 | 16.30388 | 0.285 | 250.3 |
| 2026-02-07T20:36 | 56.24833 | 16.30532 | 0.324 | 116.6 |
| 2026-02-07T20:46 | 56.24761 | 16.30637 | 0.333 | 140.8 |
| 2026-02-07T20:56 | 56.24687 | 16.30787 | 0.401 | 131.8 |
| 2026-02-07T21:06 | 56.24653 | 16.30935 | 0.322 | 112.3 |
| 2026-02-07T21:16 | 56.24572 | 16.31121 | 0.474 | 128.1 |
| 2026-02-07T21:26 | 56.24518 | 16.31290 | 0.391 | 119.9 |
| 2026-02-07T21:36 | 56.24480 | 16.31344 | 0.176 | 141.2 |
| 2026-02-07T21:46 | 56.24474 | 16.31405 | 0.123 | 99.8 |
| 2026-02-07T21:56 | 56.24495 | 16.31284 | 0.255 | 287.7 |
| 2026-02-07T22:06 | 56.24458 | 16.31399 | 0.268 | 120.3 |
| 2026-02-07T22:16 | 56.24442 | 16.31341 | 0.129 | 244.3 |
| 2026-02-07T22:26 | 56.24482 | 16.31371 | 0.154 | 23.6 |
| 2026-02-07T22:36 | 56.24583 | 16.31499 | 0.445 | 35.0 |
| 2026-02-07T22:46 | 56.24593 | 16.31451 | 0.101 | 290.6 |
| 2026-02-07T22:56 | 56.24652 | 16.31411 | 0.229 | 339.4 |
| 2026-02-07T23:06 | 56.24705 | 16.31291 | 0.308 | 308.5 |
| 2026-02-07T23:16 | 56.24702 | 16.30570 | 1.448 | 269.6 |
| 2026-02-07T23:26 | 56.24422 | 16.29838 | 1.784 | 235.5 |
| 2026-02-07T23:36 | 56.24068 | 16.30204 | 1.473 | 150.0 |
| 2026-02-07T23:46 | 56.24209 | 16.30368 | 0.605 | 32.9 |
| 2026-02-07T23:56 | 56.24271 | 16.30387 | 0.229 | 9.4 |
| 2026-02-08T00:06 | 56.24265 | 16.30451 | 0.132 | 100.1 |
| 2026-02-08T00:16 | 56.24265 | 16.30581 | 0.262 | 89.6 |
| 2026-02-08T00:26 | 56.24330 | 16.30693 | 0.324 | 43.9 |
| 2026-02-08T00:36 | 56.24483 | 16.30681 | 0.552 | 357.5 |
| 2026-02-08T00:46 | 56.24614 | 16.30906 | 0.653 | 43.7 |
| 2026-02-08T00:56 | 56.24457 | 16.29928 | 2.043 | 253.9 |
| 2026-02-08T01:06 | 56.23654 | 16.29296 | 3.163 | 203.7 |
| 2026-02-08T01:16 | 56.23765 | 16.29511 | 0.591 | 47.1 |
| 2026-02-08T01:26 | 56.23829 | 16.29593 | 0.281 | 35.6 |
| 2026-02-08T01:36 | 56.23918 | 16.29799 | 0.524 | 52.0 |
| 2026-02-08T01:46 | 56.23937 | 16.29946 | 0.303 | 77.2 |
| 2026-02-08T01:56 | 56.24007 | 16.30068 | 0.351 | 44.3 |
| 2026-02-08T02:06 | 56.24045 | 16.30250 | 0.391 | 69.4 |
| 2026-02-08T02:16 | 56.24084 | 16.30301 | 0.175 | 35.6 |
| 2026-02-08T02:26 | 56.24128 | 16.30407 | 0.265 | 53.5 |
| 2026-02-08T02:36 | 56.24195 | 16.30479 | 0.281 | 30.8 |
| 2026-02-08T02:46 | 56.24294 | 16.30568 | 0.400 | 26.6 |
| 2026-02-08T02:56 | 56.24348 | 16.30366 | 0.450 | 295.7 |
| 2026-02-08T03:06 | 56.24536 | 16.30629 | 0.859 | 38.0 |
| 2026-02-08T03:16 | 56.24542 | 16.30482 | 0.297 | 274.0 |
| 2026-02-08T03:26 | 56.24465 | 16.30522 | 0.288 | 163.8 |
| 2026-02-08T03:36 | 56.24375 | 16.30533 | 0.327 | 176.0 |
| 2026-02-08T03:46 | 56.24384 | 16.30720 | 0.376 | 85.1 |
| 2026-02-08T03:56 | 56.24325 | 16.30752 | 0.220 | 162.5 |
| 2026-02-08T04:06 | 56.24353 | 16.30935 | 0.380 | 74.8 |
| 2026-02-08T04:16 | 56.24393 | 16.31097 | 0.356 | 65.9 |
| 2026-02-08T04:26 | 56.24370 | 16.31189 | 0.203 | 114.4 |
| 2026-02-08T04:36 | 56.24365 | 16.31166 | 0.048 | 249.5 |
| 2026-02-08T04:46 | 56.24450 | 16.31220 | 0.325 | 19.5 |
| 2026-02-08T04:56 | 56.24493 | 16.31077 | 0.326 | 297.9 |
| 2026-02-08T05:06 | 56.24571 | 16.31153 | 0.321 | 28.4 |
| 2026-02-08T05:16 | 56.24602 | 16.31045 | 0.245 | 297.6 |
| 2026-02-08T05:26 | 56.24713 | 16.31128 | 0.433 | 22.7 |
| 2026-02-08T05:36 | 56.24833 | 16.31193 | 0.453 | 16.8 |
| 2026-02-08T05:46 | 56.24905 | 16.31435 | 0.550 | 62.1 |
| 2026-02-08T05:56 | 56.24932 | 16.31215 | 0.453 | 282.5 |
| 2026-02-08T06:06 | 56.24942 | 16.31324 | 0.221 | 80.4 |
| 2026-02-08T06:16 | 56.24765 | 16.31201 | 0.685 | 201.1 |
| 2026-02-08T06:26 | 56.24728 | 16.31305 | 0.248 | 122.5 |
| 2026-02-08T06:36 | 56.24697 | 16.31495 | 0.396 | 106.5 |
| 2026-02-08T06:46 | 56.24655 | 16.31639 | 0.326 | 117.2 |
| 2026-02-08T06:56 | 56.24662 | 16.31731 | 0.187 | 82.9 |
| 2026-02-08T07:06 | 56.24618 | 16.31632 | 0.252 | 231.9 |
| 2026-02-08T07:16 | 56.24736 | 16.31541 | 0.461 | 336.5 |
| 2026-02-08T07:26 | 56.24784 | 16.31495 | 0.196 | 331.8 |
| 2026-02-08T07:36 | 56.24886 | 16.31444 | 0.383 | 344.7 |
| 2026-02-08T07:46 | 56.25033 | 16.31398 | 0.539 | 350.2 |
| 2026-02-08T07:56 | 56.25089 | 16.31471 | 0.247 | 36.2 |
| 2026-02-08T08:06 | 56.25192 | 16.31331 | 0.467 | 322.9 |
| 2026-02-08T08:16 | 56.25270 | 16.31313 | 0.285 | 352.8 |
| 2026-02-08T08:26 | 56.25387 | 16.31224 | 0.457 | 336.9 |
| 2026-02-08T08:36 | 56.25479 | 16.31169 | 0.349 | 341.7 |
| 2026-02-08T08:46 | 56.25583 | 16.31074 | 0.421 | 332.8 |
| 2026-02-08T08:56 | 56.25579 | 16.31036 | 0.077 | 258.9 |
| 2026-02-08T09:06 | 56.25494 | 16.30973 | 0.332 | 202.2 |
| 2026-02-08T09:16 | 56.25449 | 16.30831 | 0.328 | 240.4 |
| 2026-02-08T09:26 | 56.25431 | 16.30515 | 0.638 | 264.3 |
| 2026-02-08T09:36 | 56.25207 | 16.30259 | 0.957 | 212.5 |
| 2026-02-08T09:46 | 56.24985 | 16.30074 | 0.882 | 204.9 |
| 2026-02-08T09:56 | 56.24780 | 16.29924 | 0.799 | 202.1 |
| 2026-02-08T10:06 | 56.24815 | 16.30013 | 0.218 | 55.2 |
| 2026-02-08T10:16 | 56.24822 | 16.30144 | 0.263 | 84.0 |
| 2026-02-08T10:26 | 56.24828 | 16.30063 | 0.163 | 277.5 |
| 2026-02-08T10:36 | 56.24808 | 16.30112 | 0.122 | 127.2 |
| 2026-02-08T10:46 | 56.24697 | 16.29989 | 0.469 | 211.6 |
| 2026-02-08T10:56 | 56.24797 | 16.30359 | 0.825 | 64.2 |
| 2026-02-08T11:06 | 56.25027 | 16.30814 | 1.234 | 47.8 |
| 2026-02-08T11:16 | 56.25147 | 16.30808 | 0.436 | 358.3 |
| 2026-02-08T11:26 | 56.25314 | 16.30942 | 0.657 | 24.1 |
| 2026-02-08T11:36 | 56.25433 | 16.31181 | 0.645 | 48.2 |
| 2026-02-08T11:46 | 56.25324 | 16.31276 | 0.436 | 154.0 |
| 2026-02-08T11:56 | 56.24705 | 16.30706 | 2.510 | 207.2 |
| 2026-02-08T12:06 | 56.24070 | 16.30357 | 2.394 | 197.0 |
| 2026-02-08T12:16 | 56.24233 | 16.30939 | 1.307 | 63.2 |
| 2026-02-08T12:26 | 56.24374 | 16.31124 | 0.630 | 36.2 |
| 2026-02-08T12:36 | 56.24495 | 16.30970 | 0.535 | 324.6 |
| 2026-02-08T12:46 | 56.24714 | 16.31343 | 1.087 | 43.5 |
| 2026-02-08T12:56 | 56.24878 | 16.31467 | 0.644 | 22.8 |
| 2026-02-08T13:06 | 56.25089 | 16.31613 | 0.814 | 21.1 |
| 2026-02-08T13:16 | 56.24802 | 16.30635 | 2.219 | 242.2 |
| 2026-02-08T13:26 | 56.24137 | 16.29670 | 3.080 | 219.0 |
| 2026-02-08T13:36 | 56.23909 | 16.29924 | 0.971 | 148.2 |
| 2026-02-08T13:46 | 56.24044 | 16.30314 | 0.922 | 58.0 |
| 2026-02-08T13:56 | 56.24168 | 16.30557 | 0.662 | 47.6 |
| 2026-02-08T14:06 | 56.24312 | 16.30639 | 0.544 | 17.6 |
| 2026-02-08T14:16 | 56.24455 | 16.31017 | 0.918 | 55.7 |
| 2026-02-08T14:26 | 56.24541 | 16.30590 | 0.910 | 289.9 |
| 2026-02-08T14:36 | 56.24379 | 16.30420 | 0.676 | 210.5 |
| 2026-02-08T14:46 | 56.24567 | 16.31147 | 1.608 | 65.2 |
| 2026-02-08T14:56 | 56.24669 | 16.31362 | 0.567 | 49.6 |
| 2026-02-08T15:06 | 56.24729 | 16.31315 | 0.236 | 336.7 |
| 2026-02-08T15:16 | 56.24900 | 16.31332 | 0.618 | 3.0 |
| 2026-02-08T15:26 | 56.25023 | 16.31812 | 1.060 | 65.3 |
| 2026-02-08T15:36 | 56.25044 | 16.31581 | 0.470 | 279.6 |
| 2026-02-08T15:46 | 56.25237 | 16.32218 | 1.456 | 61.5 |
| 2026-02-08T15:56 | 56.25310 | 16.32559 | 0.732 | 69.1 |
| 2026-02-08T16:06 | 56.25436 | 16.33067 | 1.117 | 66.0 |
| 2026-02-08T16:16 | 56.25558 | 16.33133 | 0.460 | 16.7 |
| 2026-02-08T16:26 | 56.25700 | 16.33572 | 1.019 | 60.0 |
| 2026-02-08T16:36 | 56.25829 | 16.33540 | 0.469 | 352.0 |
| 2026-02-08T16:46 | 56.25301 | 16.33677 | 1.920 | 171.8 |
| 2026-02-08T16:56 | 56.24372 | 16.32090 | 4.624 | 223.6 |
| 2026-02-08T17:06 | 56.21560 | 16.31575 | 10.189 | 185.8 |
| 2026-02-08T17:16 | 56.18612 | 16.31858 | 10.645 | 176.9 |
| 2026-02-08T17:26 | 56.15758 | 16.32526 | 10.376 | 172.6 |
| 2026-02-08T17:36 | 56.12953 | 16.33173 | 10.199 | 172.7 |
| 2026-02-08T17:46 | 56.10175 | 16.33782 | 10.091 | 173.0 |
| 2026-02-08T17:56 | 56.08211 | 16.36572 | 9.041 | 141.5 |
| 2026-02-08T18:06 | 56.06421 | 16.39805 | 9.175 | 134.7 |
| 2026-02-08T18:16 | 56.04667 | 16.43097 | 9.169 | 133.6 |
| 2026-02-08T18:26 | 56.02930 | 16.46262 | 8.945 | 134.4 |
| 2026-02-08T18:36 | 56.01178 | 16.49523 | 9.124 | 133.8 |
| 2026-02-08T18:46 | 55.99492 | 16.52841 | 9.051 | 132.2 |
| 2026-02-08T18:56 | 55.97960 | 16.56364 | 9.010 | 127.8 |
| 2026-02-08T19:06 | 55.97233 | 16.59919 | 7.650 | 110.0 |
| 2026-02-08T19:16 | 55.98533 | 16.63290 | 8.270 | 55.5 |
| 2026-02-08T19:26 | 55.99865 | 16.66758 | 8.496 | 55.6 |
| 2026-02-08T19:36 | 56.01225 | 16.70361 | 8.774 | 56.0 |
| 2026-02-08T19:46 | 56.02538 | 16.73809 | 8.420 | 55.8 |
| 2026-02-08T19:56 | 56.03830 | 16.77225 | 8.322 | 56.0 |
| 2026-02-08T20:06 | 56.05162 | 16.80789 | 8.647 | 56.2 |
| 2026-02-08T20:16 | 56.06520 | 16.84125 | 8.322 | 53.9 |
| 2026-02-08T20:26 | 56.08026 | 16.87785 | 9.163 | 53.6 |
| 2026-02-08T20:36 | 56.09573 | 16.91530 | 9.386 | 53.5 |
| 2026-02-08T20:46 | 56.11091 | 16.95259 | 9.296 | 53.9 |
| 2026-02-08T20:56 | 56.12665 | 16.99129 | 9.641 | 53.9 |
| 2026-02-08T21:06 | 56.14225 | 17.02967 | 9.556 | 53.9 |
| 2026-02-08T21:16 | 56.15761 | 17.06790 | 9.482 | 54.2 |
| 2026-02-08T21:26 | 56.17236 | 17.10489 | 9.144 | 54.4 |
| 2026-02-08T21:36 | 56.18757 | 17.14269 | 9.375 | 54.2 |
| 2026-02-08T21:46 | 56.20272 | 17.18044 | 9.348 | 54.2 |
| 2026-02-08T21:56 | 56.21788 | 17.21862 | 9.419 | 54.5 |
| 2026-02-08T22:06 | 56.23321 | 17.25717 | 9.514 | 54.5 |
| 2026-02-08T22:16 | 56.24753 | 17.29647 | 9.431 | 56.8 |
| 2026-02-08T22:26 | 56.26132 | 17.33658 | 9.460 | 58.3 |
| 2026-02-08T22:36 | 56.27129 | 17.37983 | 9.393 | 67.5 |
| 2026-02-08T22:46 | 56.28111 | 17.42153 | 9.082 | 67.0 |
| 2026-02-08T22:56 | 56.29113 | 17.46433 | 9.313 | 67.1 |
| 2026-02-08T23:06 | 56.30121 | 17.50896 | 9.657 | 67.9 |
| 2026-02-08T23:16 | 56.30643 | 17.55460 | 9.339 | 78.3 |
| 2026-02-08T23:26 | 56.31083 | 17.60113 | 9.460 | 80.3 |
| 2026-02-08T23:36 | 56.31422 | 17.64737 | 9.347 | 82.5 |
| 2026-02-08T23:46 | 56.31754 | 17.69243 | 9.108 | 82.4 |
| 2026-02-08T23:56 | 56.32094 | 17.73859 | 9.329 | 82.4 |
| 2026-02-09T00:06 | 56.32419 | 17.78484 | 9.339 | 82.8 |
| 2026-02-09T00:16 | 56.32675 | 17.83159 | 9.411 | 84.3 |
| 2026-02-09T00:26 | 56.32955 | 17.87776 | 9.303 | 83.8 |
| 2026-02-09T00:36 | 56.33215 | 17.92385 | 9.279 | 84.2 |
| 2026-02-09T00:46 | 56.33490 | 17.97018 | 9.331 | 83.9 |
| 2026-02-09T00:56 | 56.33768 | 18.01681 | 9.393 | 83.8 |
| 2026-02-09T01:06 | 56.34062 | 18.06402 | 9.514 | 83.6 |
| 2026-02-09T01:16 | 56.34237 | 18.11033 | 9.294 | 86.1 |
| 2026-02-09T01:26 | 56.34621 | 18.15752 | 9.550 | 81.7 |
| 2026-02-09T01:36 | 56.35042 | 18.20553 | 9.731 | 81.0 |
| 2026-02-09T01:46 | 56.35400 | 18.25540 | 10.066 | 82.6 |
| 2026-02-09T01:56 | 56.35749 | 18.30490 | 9.988 | 82.8 |
| 2026-02-09T02:06 | 56.36047 | 18.35433 | 9.952 | 83.8 |
| 2026-02-09T02:16 | 56.36341 | 18.40365 | 9.927 | 83.8 |
| 2026-02-09T02:26 | 56.36626 | 18.45334 | 9.997 | 84.1 |
| 2026-02-09T02:36 | 56.36894 | 18.50362 | 10.107 | 84.5 |
| 2026-02-09T02:46 | 56.37213 | 18.55416 | 10.178 | 83.5 |
| 2026-02-09T02:56 | 56.37652 | 18.60424 | 10.143 | 81.0 |
| 2026-02-09T03:06 | 56.39347 | 18.64433 | 10.083 | 52.7 |
| 2026-02-09T03:16 | 56.41322 | 18.68234 | 10.412 | 46.8 |
| 2026-02-09T03:26 | 56.43362 | 18.71989 | 10.510 | 45.5 |
| 2026-02-09T03:36 | 56.45329 | 18.75793 | 10.391 | 47.0 |
| 2026-02-09T03:46 | 56.47329 | 18.79598 | 10.473 | 46.5 |
| 2026-02-09T03:56 | 56.49361 | 18.83395 | 10.540 | 45.9 |
| 2026-02-09T04:06 | 56.51384 | 18.87204 | 10.529 | 46.1 |
| 2026-02-09T04:16 | 56.53414 | 18.91094 | 10.660 | 46.6 |
| 2026-02-09T04:26 | 56.55413 | 18.95002 | 10.609 | 47.2 |
| 2026-02-09T04:36 | 56.57389 | 18.98978 | 10.651 | 48.0 |
| 2026-02-09T04:46 | 56.59390 | 19.03032 | 10.821 | 48.2 |
| 2026-02-09T04:56 | 56.61383 | 19.07043 | 10.737 | 48.0 |
| 2026-02-09T05:06 | 56.63351 | 19.10975 | 10.556 | 47.8 |
| 2026-02-09T05:16 | 56.65344 | 19.14973 | 10.711 | 47.8 |
| 2026-02-09T05:26 | 56.67365 | 19.19023 | 10.852 | 47.8 |
| 2026-02-09T05:36 | 56.69418 | 19.23036 | 10.874 | 47.1 |
| 2026-02-09T05:46 | 56.71521 | 19.27009 | 10.935 | 46.1 |
| 2026-02-09T05:56 | 56.73607 | 19.30983 | 10.891 | 46.3 |
| 2026-02-09T06:06 | 56.75714 | 19.34973 | 10.964 | 46.1 |
| 2026-02-09T06:16 | 56.77817 | 19.38961 | 10.947 | 46.1 |
| 2026-02-09T06:26 | 56.79905 | 19.42996 | 10.976 | 46.7 |
| 2026-02-09T06:36 | 56.81991 | 19.46975 | 10.886 | 46.3 |
| 2026-02-09T06:46 | 56.84057 | 19.51011 | 10.917 | 47.0 |
| 2026-02-09T06:56 | 56.86140 | 19.55135 | 11.079 | 47.3 |
| 2026-02-09T07:06 | 56.88260 | 19.59314 | 11.250 | 47.2 |
| 2026-02-09T07:16 | 56.90403 | 19.63391 | 11.154 | 46.1 |
| 2026-02-09T07:26 | 56.92527 | 19.67453 | 11.084 | 46.3 |
| 2026-02-09T07:36 | 56.94682 | 19.71427 | 11.035 | 45.2 |
| 2026-02-09T07:46 | 56.96842 | 19.75353 | 10.974 | 44.8 |
| 2026-02-09T07:56 | 56.99029 | 19.79265 | 11.025 | 44.3 |
| 2026-02-09T08:06 | 57.01187 | 19.83157 | 10.917 | 44.5 |
| 2026-02-09T08:16 | 57.03277 | 19.87175 | 10.921 | 46.3 |
| 2026-02-09T08:26 | 57.05351 | 19.91266 | 10.982 | 47.1 |
| 2026-02-09T08:36 | 57.07441 | 19.95352 | 11.009 | 46.8 |
| 2026-02-09T08:46 | 57.09505 | 19.99480 | 11.004 | 47.4 |
| 2026-02-09T08:56 | 57.11570 | 20.03667 | 11.087 | 47.8 |
| 2026-02-09T09:06 | 57.13661 | 20.07801 | 11.071 | 47.1 |
| 2026-02-09T09:16 | 57.15776 | 20.11888 | 11.061 | 46.4 |
| 2026-02-09T09:26 | 57.17870 | 20.15986 | 11.021 | 46.7 |
| 2026-02-09T09:36 | 57.19944 | 20.20067 | 10.942 | 46.9 |
| 2026-02-09T09:46 | 57.22087 | 20.23972 | 10.868 | 44.7 |
| 2026-02-09T09:56 | 57.24257 | 20.27991 | 11.090 | 45.1 |
| 2026-02-09T10:06 | 57.26458 | 20.32014 | 11.173 | 44.7 |
| 2026-02-09T10:16 | 57.28694 | 20.36095 | 11.338 | 44.7 |
| 2026-02-09T10:26 | 57.30958 | 20.40121 | 11.331 | 43.9 |
| 2026-02-09T10:36 | 57.33054 | 20.44288 | 11.099 | 47.1 |
| 2026-02-09T10:46 | 57.34868 | 20.48035 | 9.807 | 48.1 |
| 2026-02-09T10:56 | 57.35060 | 20.48359 | 0.938 | 42.3 |
| 2026-02-09T11:06 | 57.34887 | 20.48398 | 0.629 | 173.1 |
| 2026-02-09T11:16 | 57.34794 | 20.48423 | 0.340 | 171.7 |
| 2026-02-09T11:26 | 57.34709 | 20.48570 | 0.419 | 136.7 |
| 2026-02-09T11:36 | 57.34591 | 20.48832 | 0.665 | 129.8 |
| 2026-02-09T11:46 | 57.34497 | 20.48929 | 0.387 | 150.9 |
| 2026-02-09T11:56 | 57.34868 | 20.48289 | 1.827 | 316.9 |
| 2026-02-09T12:06 | 57.34983 | 20.48345 | 0.428 | 14.8 |
| 2026-02-09T12:16 | 57.34905 | 20.48287 | 0.301 | 202.2 |
| 2026-02-09T12:26 | 57.34727 | 20.48147 | 0.696 | 202.9 |
| 2026-02-09T12:36 | 57.35056 | 20.48296 | 1.221 | 13.8 |
| 2026-02-09T12:46 | 57.34943 | 20.48303 | 0.407 | 178.2 |
| 2026-02-09T12:56 | 57.34799 | 20.48382 | 0.545 | 163.4 |
| 2026-02-09T13:06 | 57.34611 | 20.48287 | 0.703 | 195.4 |
| 2026-02-09T13:16 | 57.34568 | 20.48352 | 0.201 | 140.4 |
| 2026-02-09T13:26 | 57.34414 | 20.48217 | 0.616 | 205.4 |
| 2026-02-09T13:36 | 57.34312 | 20.48041 | 0.503 | 223.1 |
| 2026-02-09T13:46 | 57.34920 | 20.48219 | 2.223 | 9.0 |
| 2026-02-09T13:56 | 57.35279 | 20.48708 | 1.607 | 36.4 |
| 2026-02-09T14:06 | 57.35086 | 20.48656 | 0.703 | 188.4 |
| 2026-02-09T14:16 | 57.34960 | 20.48792 | 0.526 | 149.6 |
| 2026-02-09T14:26 | 57.34845 | 20.48683 | 0.469 | 207.0 |
| 2026-02-09T14:36 | 57.34859 | 20.48465 | 0.428 | 277.0 |
| 2026-02-09T14:46 | 57.34839 | 20.48364 | 0.210 | 250.2 |
| 2026-02-09T14:56 | 57.34786 | 20.48273 | 0.263 | 222.3 |
| 2026-02-09T15:06 | 57.34734 | 20.48312 | 0.201 | 157.5 |
| 2026-02-09T15:16 | 57.34848 | 20.48036 | 0.678 | 307.3 |
| 2026-02-09T15:26 | 57.34823 | 20.48346 | 0.612 | 98.5 |
| 2026-02-09T15:36 | 57.34982 | 20.48357 | 0.572 | 2.2 |
| 2026-02-09T15:46 | 57.34988 | 20.48352 | 0.025 | 335.5 |
| 2026-02-09T15:56 | 57.34992 | 20.48337 | 0.033 | 295.2 |
| 2026-02-09T16:06 | 57.34994 | 20.48336 | 0.007 | 353.8 |
| 2026-02-09T16:16 | 57.35008 | 20.48296 | 0.094 | 302.3 |
| 2026-02-09T16:26 | 57.34961 | 20.48453 | 0.350 | 118.9 |
| 2026-02-09T16:36 | 57.34744 | 20.48256 | 0.870 | 206.1 |
| 2026-02-09T16:46 | 57.34507 | 20.48056 | 0.941 | 204.5 |
| 2026-02-09T16:56 | 57.34758 | 20.47826 | 1.010 | 333.6 |
| 2026-02-09T17:06 | 57.35109 | 20.48352 | 1.629 | 39.1 |
| 2026-02-09T17:16 | 57.34880 | 20.48514 | 0.882 | 159.1 |
| 2026-02-09T17:26 | 57.34773 | 20.48311 | 0.551 | 225.8 |
| 2026-02-09T17:36 | 57.34718 | 20.48178 | 0.328 | 232.1 |
| 2026-02-09T17:46 | 57.34840 | 20.48147 | 0.446 | 352.0 |
| 2026-02-09T17:56 | 57.34952 | 20.47980 | 0.520 | 321.2 |
| 2026-02-09T18:06 | 57.34983 | 20.48169 | 0.386 | 73.0 |
| 2026-02-09T18:16 | 57.34898 | 20.47876 | 0.649 | 241.5 |
| 2026-02-09T18:26 | 57.34811 | 20.47736 | 0.414 | 221.3 |
| 2026-02-09T18:36 | 57.34671 | 20.47624 | 0.553 | 203.4 |
| 2026-02-09T18:46 | 57.34674 | 20.47433 | 0.372 | 272.1 |
| 2026-02-09T18:56 | 57.34857 | 20.47782 | 0.947 | 45.8 |
| 2026-02-09T19:06 | 57.35048 | 20.48109 | 0.938 | 42.9 |
| 2026-02-09T19:16 | 57.35265 | 20.48334 | 0.898 | 29.1 |
| 2026-02-09T19:26 | 57.35309 | 20.48392 | 0.195 | 35.8 |
| 2026-02-09T19:36 | 57.35142 | 20.48455 | 0.617 | 168.6 |
| 2026-02-09T19:46 | 57.35121 | 20.48782 | 0.642 | 96.6 |
| 2026-02-09T19:56 | 57.34955 | 20.48877 | 0.626 | 162.8 |
| 2026-02-09T20:06 | 57.35005 | 20.48889 | 0.180 | 7.5 |
| 2026-02-09T20:16 | 57.35009 | 20.48741 | 0.289 | 273.4 |
| 2026-02-09T20:26 | 57.35027 | 20.48484 | 0.505 | 277.4 |
| 2026-02-09T20:36 | 57.34993 | 20.48549 | 0.177 | 134.5 |
| 2026-02-09T20:46 | 57.35087 | 20.48578 | 0.344 | 9.3 |
| 2026-02-09T20:56 | 57.35100 | 20.48528 | 0.108 | 295.3 |
| 2026-02-09T21:06 | 57.34955 | 20.48648 | 0.573 | 155.8 |
| 2026-02-09T21:16 | 57.34865 | 20.48806 | 0.447 | 136.7 |
| 2026-02-09T21:26 | 57.34868 | 20.48688 | 0.230 | 272.9 |
| 2026-02-09T21:36 | 57.34966 | 20.48678 | 0.354 | 357.0 |
| 2026-02-09T21:46 | 57.35038 | 20.48501 | 0.432 | 306.7 |
| 2026-02-09T21:56 | 57.34877 | 20.48382 | 0.622 | 201.8 |
| 2026-02-09T22:06 | 57.34813 | 20.48489 | 0.311 | 137.9 |
| 2026-02-09T22:16 | 57.34955 | 20.48621 | 0.573 | 26.6 |
| 2026-02-09T22:26 | 57.34913 | 20.48633 | 0.155 | 171.4 |
| 2026-02-09T22:36 | 57.34972 | 20.48488 | 0.354 | 307.0 |
| 2026-02-09T22:46 | 57.34998 | 20.48372 | 0.245 | 293.1 |
| 2026-02-09T22:56 | 57.35068 | 20.48396 | 0.254 | 10.5 |
| 2026-02-09T23:06 | 57.34979 | 20.48021 | 0.798 | 246.3 |
| 2026-02-09T23:16 | 57.34939 | 20.47723 | 0.597 | 256.2 |
| 2026-02-09T23:26 | 57.35012 | 20.47526 | 0.465 | 304.2 |
| 2026-02-09T23:36 | 57.34996 | 20.47413 | 0.227 | 255.8 |
| 2026-02-09T23:46 | 57.34982 | 20.47742 | 0.644 | 94.5 |
| 2026-02-09T23:56 | 57.34926 | 20.47914 | 0.392 | 121.2 |
| 2026-02-10T00:06 | 57.34989 | 20.47878 | 0.237 | 342.3 |
| 2026-02-10T00:16 | 57.35077 | 20.47657 | 0.535 | 306.5 |
| 2026-02-10T00:26 | 57.34845 | 20.47668 | 0.837 | 178.5 |
| 2026-02-10T00:36 | 57.34743 | 20.47568 | 0.414 | 208.1 |
| 2026-02-10T00:46 | 57.34616 | 20.47447 | 0.517 | 207.1 |
| 2026-02-10T00:56 | 57.34970 | 20.47782 | 1.435 | 27.1 |
| 2026-02-10T01:06 | 57.35220 | 20.48664 | 1.940 | 62.4 |
| 2026-02-10T01:16 | 57.35075 | 20.48727 | 0.535 | 166.7 |
| 2026-02-10T01:26 | 57.35047 | 20.48682 | 0.135 | 220.5 |
| 2026-02-10T01:36 | 57.35044 | 20.48520 | 0.315 | 268.2 |
| 2026-02-10T01:46 | 57.35011 | 20.48358 | 0.339 | 249.2 |
| 2026-02-10T01:56 | 57.35042 | 20.48290 | 0.174 | 310.7 |
| 2026-02-10T02:06 | 57.35005 | 20.48352 | 0.179 | 137.8 |
| 2026-02-10T02:16 | 57.34988 | 20.48335 | 0.073 | 207.7 |
| 2026-02-10T02:26 | 57.34949 | 20.48167 | 0.354 | 247.2 |
| 2026-02-10T02:36 | 57.34969 | 20.47942 | 0.444 | 279.2 |
| 2026-02-10T02:46 | 57.34833 | 20.47761 | 0.606 | 215.7 |
| 2026-02-10T02:56 | 57.34975 | 20.47396 | 0.876 | 305.8 |
| 2026-02-10T03:06 | 57.34736 | 20.47367 | 0.862 | 183.7 |
| 2026-02-10T03:16 | 57.34974 | 20.47675 | 1.046 | 34.9 |
| 2026-02-10T03:26 | 57.35227 | 20.48037 | 1.153 | 37.8 |
| 2026-02-10T03:36 | 57.35071 | 20.47940 | 0.594 | 198.7 |
| 2026-02-10T03:46 | 57.35182 | 20.47641 | 0.708 | 304.6 |
| 2026-02-10T03:56 | 57.35001 | 20.47878 | 0.801 | 144.7 |
| 2026-02-10T04:06 | 57.35002 | 20.48184 | 0.597 | 89.7 |
| 2026-02-10T04:16 | 57.35031 | 20.48401 | 0.435 | 76.0 |
| 2026-02-10T04:26 | 57.34949 | 20.48297 | 0.361 | 214.1 |
| 2026-02-10T04:36 | 57.34860 | 20.48223 | 0.352 | 204.3 |
| 2026-02-10T04:46 | 57.35163 | 20.48944 | 1.782 | 52.1 |
| 2026-02-10T04:56 | 57.35929 | 20.50776 | 4.512 | 52.3 |
| 2026-02-10T05:06 | 57.37007 | 20.53404 | 6.430 | 52.8 |
| 2026-02-10T05:16 | 57.38067 | 20.56149 | 6.574 | 54.4 |
| 2026-02-10T05:26 | 57.39110 | 20.58940 | 6.608 | 55.3 |
| 2026-02-10T05:36 | 57.40136 | 20.61699 | 6.523 | 55.4 |
| 2026-02-10T05:46 | 57.41175 | 20.64559 | 6.711 | 56.0 |
| 2026-02-10T05:56 | 57.42196 | 20.67294 | 6.469 | 55.3 |
| 2026-02-10T06:06 | 57.42780 | 20.68756 | 3.539 | 53.5 |
| 2026-02-10T06:16 | 57.43319 | 20.70018 | 3.132 | 51.6 |
| 2026-02-10T06:26 | 57.43872 | 20.71307 | 3.204 | 51.5 |
| 2026-02-10T06:36 | 57.44383 | 20.72415 | 2.835 | 49.5 |
| 2026-02-10T06:46 | 57.44472 | 20.72940 | 1.070 | 72.6 |
| 2026-02-10T06:56 | 57.44454 | 20.72858 | 0.172 | 247.0 |
| 2026-02-10T07:06 | 57.44324 | 20.72643 | 0.628 | 221.7 |
| 2026-02-10T07:16 | 57.44210 | 20.72535 | 0.462 | 207.1 |
| 2026-02-10T07:26 | 57.44204 | 20.72555 | 0.043 | 115.9 |
| 2026-02-10T07:36 | 57.44195 | 20.72625 | 0.141 | 103.3 |
| 2026-02-10T07:46 | 57.44197 | 20.72595 | 0.059 | 275.3 |
| 2026-02-10T07:56 | 57.44206 | 20.72556 | 0.083 | 293.2 |
| 2026-02-10T08:06 | 57.44198 | 20.72555 | 0.030 | 181.1 |
| 2026-02-10T08:16 | 57.44117 | 20.72576 | 0.295 | 172.3 |
| 2026-02-10T08:26 | 57.41874 | 20.73677 | 8.366 | 165.2 |
| 2026-02-10T08:36 | 57.39083 | 20.75210 | 10.496 | 163.5 |
| 2026-02-10T08:46 | 57.36288 | 20.76778 | 10.533 | 163.1 |
| 2026-02-10T08:56 | 57.33476 | 20.78045 | 10.436 | 166.3 |
| 2026-02-10T09:06 | 57.32665 | 20.78208 | 2.943 | 173.8 |
| 2026-02-10T09:16 | 57.32627 | 20.78278 | 0.191 | 134.7 |
| 2026-02-10T09:26 | 57.32598 | 20.78122 | 0.321 | 250.9 |
| 2026-02-10T09:36 | 57.32561 | 20.78095 | 0.143 | 201.7 |
| 2026-02-10T09:46 | 57.32575 | 20.78142 | 0.105 | 62.1 |
| 2026-02-10T09:56 | 57.32485 | 20.78054 | 0.370 | 207.9 |
| 2026-02-10T10:06 | 57.34083 | 20.76950 | 6.152 | 339.5 |
| 2026-02-10T10:16 | 57.36994 | 20.76347 | 10.565 | 353.6 |
| 2026-02-10T10:26 | 57.39854 | 20.75433 | 10.465 | 350.2 |
| 2026-02-10T10:36 | 57.42696 | 20.74095 | 10.573 | 345.8 |
| 2026-02-10T10:46 | 57.44394 | 20.73011 | 6.477 | 341.0 |
| 2026-02-10T10:56 | 57.44143 | 20.72938 | 0.915 | 188.8 |
| 2026-02-10T11:06 | 57.44023 | 20.73047 | 0.483 | 154.0 |
| 2026-02-10T11:16 | 57.44213 | 20.72526 | 1.224 | 304.1 |
| 2026-02-10T11:26 | 57.44170 | 20.72556 | 0.166 | 159.9 |
| 2026-02-10T11:36 | 57.44140 | 20.72558 | 0.108 | 177.8 |
| 2026-02-10T11:46 | 57.44133 | 20.72590 | 0.067 | 112.4 |
| 2026-02-10T11:56 | 57.44068 | 20.72622 | 0.243 | 164.8 |
| 2026-02-10T12:06 | 57.44008 | 20.72646 | 0.221 | 167.9 |
| 2026-02-10T12:16 | 57.44015 | 20.72607 | 0.080 | 288.7 |
| 2026-02-10T12:26 | 57.44285 | 20.72204 | 1.249 | 321.2 |
| 2026-02-10T12:36 | 57.44224 | 20.72443 | 0.513 | 115.4 |
| 2026-02-10T12:46 | 57.44174 | 20.72503 | 0.216 | 147.1 |
| 2026-02-10T12:56 | 57.44066 | 20.72425 | 0.417 | 201.2 |
| 2026-02-10T13:06 | 57.43876 | 20.72306 | 0.722 | 198.8 |
| 2026-02-10T13:16 | 57.43848 | 20.72212 | 0.209 | 240.6 |
| 2026-02-10T13:26 | 57.43701 | 20.72130 | 0.551 | 196.8 |
| 2026-02-10T13:36 | 57.43664 | 20.72181 | 0.168 | 144.1 |
| 2026-02-10T13:46 | 57.43647 | 20.72177 | 0.062 | 187.8 |
| 2026-02-10T13:56 | 57.44299 | 20.72405 | 2.394 | 10.7 |
| 2026-02-10T14:06 | 57.44904 | 20.72722 | 2.267 | 15.7 |
| 2026-02-10T14:16 | 57.44818 | 20.72702 | 0.314 | 187.1 |
| 2026-02-10T14:26 | 57.44730 | 20.72621 | 0.353 | 206.3 |
| 2026-02-10T14:36 | 57.44627 | 20.72581 | 0.379 | 192.0 |
| 2026-02-10T14:46 | 57.44523 | 20.72519 | 0.393 | 197.8 |
| 2026-02-10T14:56 | 57.44562 | 20.72528 | 0.143 | 7.0 |
| 2026-02-10T15:06 | 57.44365 | 20.72476 | 0.720 | 188.0 |
| 2026-02-10T15:16 | 57.44395 | 20.72480 | 0.110 | 4.1 |
| 2026-02-10T15:26 | 57.44013 | 20.72358 | 1.396 | 189.8 |
| 2026-02-10T15:36 | 57.44211 | 20.72631 | 0.887 | 36.7 |
| 2026-02-10T15:46 | 57.44133 | 20.72723 | 0.333 | 147.6 |
| 2026-02-10T15:56 | 57.44165 | 20.72519 | 0.413 | 286.2 |
| 2026-02-10T16:06 | 57.44157 | 20.72527 | 0.032 | 152.0 |
| 2026-02-10T16:16 | 57.44098 | 20.72689 | 0.380 | 123.6 |
| 2026-02-10T16:26 | 57.43759 | 20.72795 | 1.243 | 170.5 |
| 2026-02-10T16:36 | 57.43745 | 20.72895 | 0.200 | 104.2 |
| 2026-02-10T16:46 | 57.43806 | 20.72798 | 0.290 | 319.7 |
| 2026-02-10T16:56 | 57.44369 | 20.72824 | 2.031 | 1.4 |
| 2026-02-10T17:06 | 57.44693 | 20.72594 | 1.248 | 339.1 |
| 2026-02-10T17:16 | 57.44591 | 20.72327 | 0.636 | 234.8 |
| 2026-02-10T17:26 | 57.44282 | 20.72248 | 1.124 | 187.8 |
| 2026-02-10T17:36 | 57.44062 | 20.72167 | 0.811 | 191.2 |
| 2026-02-10T17:46 | 57.43883 | 20.72073 | 0.670 | 196.0 |
| 2026-02-10T17:56 | 57.43790 | 20.71952 | 0.408 | 215.1 |
| 2026-02-10T18:06 | 57.43744 | 20.71811 | 0.321 | 238.3 |
| 2026-02-10T18:16 | 57.43651 | 20.71673 | 0.428 | 219.0 |
| 2026-02-10T18:26 | 57.43559 | 20.71531 | 0.433 | 219.4 |
| 2026-02-10T18:36 | 57.43616 | 20.71395 | 0.336 | 307.9 |
| 2026-02-10T18:46 | 57.43781 | 20.71429 | 0.599 | 6.3 |
| 2026-02-10T18:56 | 57.43943 | 20.71508 | 0.606 | 14.7 |
| 2026-02-10T19:06 | 57.44218 | 20.71393 | 1.015 | 347.3 |
| 2026-02-10T19:16 | 57.44413 | 20.72285 | 1.871 | 67.9 |
| 2026-02-10T19:26 | 57.44376 | 20.72488 | 0.417 | 108.6 |
| 2026-02-10T19:36 | 57.44425 | 20.72534 | 0.200 | 26.8 |
| 2026-02-10T19:46 | 57.44627 | 20.72536 | 0.725 | 0.4 |
| 2026-02-10T19:56 | 57.44830 | 20.72570 | 0.736 | 5.0 |
| 2026-02-10T20:06 | 57.45005 | 20.72415 | 0.698 | 334.6 |
| 2026-02-10T20:16 | 57.44966 | 20.72291 | 0.279 | 240.2 |
| 2026-02-10T20:26 | 57.44681 | 20.72365 | 1.038 | 172.0 |
| 2026-02-10T20:36 | 57.44527 | 20.72445 | 0.579 | 164.5 |
| 2026-02-10T20:46 | 57.44437 | 20.72537 | 0.369 | 151.1 |
| 2026-02-10T20:56 | 57.44372 | 20.72581 | 0.249 | 159.8 |
| 2026-02-10T21:06 | 57.44349 | 20.72694 | 0.236 | 110.8 |
| 2026-02-10T21:16 | 57.44374 | 20.72942 | 0.490 | 79.5 |
| 2026-02-10T21:26 | 57.43915 | 20.73093 | 1.680 | 169.9 |
| 2026-02-10T21:36 | 57.44029 | 20.72871 | 0.595 | 313.5 |
| 2026-02-10T21:46 | 57.44206 | 20.72948 | 0.658 | 13.0 |
| 2026-02-10T21:56 | 57.44378 | 20.73052 | 0.651 | 18.1 |
| 2026-02-10T22:06 | 57.44554 | 20.73172 | 0.675 | 20.2 |
| 2026-02-10T22:16 | 57.44721 | 20.73288 | 0.644 | 20.7 |
| 2026-02-10T22:26 | 57.44670 | 20.73121 | 0.373 | 240.7 |
| 2026-02-10T22:36 | 57.44410 | 20.72996 | 0.968 | 194.6 |
| 2026-02-10T22:46 | 57.44272 | 20.72876 | 0.549 | 205.2 |
| 2026-02-10T22:56 | 57.44157 | 20.72741 | 0.493 | 212.2 |
| 2026-02-10T23:06 | 57.44064 | 20.72581 | 0.455 | 223.1 |
| 2026-02-10T23:16 | 57.44076 | 20.72381 | 0.390 | 275.9 |
| 2026-02-10T23:26 | 57.44187 | 20.72197 | 0.540 | 318.3 |
| 2026-02-10T23:36 | 57.44346 | 20.72274 | 0.591 | 14.6 |
| 2026-02-10T23:46 | 57.44510 | 20.72359 | 0.616 | 15.6 |
| 2026-02-10T23:56 | 57.44479 | 20.72351 | 0.113 | 187.3 |
| 2026-02-11T00:06 | 57.44288 | 20.72696 | 0.962 | 135.9 |
| 2026-02-11T00:16 | 57.44119 | 20.72720 | 0.611 | 175.5 |
| 2026-02-11T00:26 | 57.43912 | 20.72675 | 0.751 | 186.8 |
| 2026-02-11T00:36 | 57.43892 | 20.72600 | 0.164 | 243.0 |
| 2026-02-11T00:46 | 57.44027 | 20.72691 | 0.520 | 20.0 |
| 2026-02-11T00:56 | 57.44162 | 20.72847 | 0.573 | 31.9 |
| 2026-02-11T01:06 | 57.44292 | 20.72918 | 0.490 | 16.3 |
| 2026-02-11T01:16 | 57.44389 | 20.72689 | 0.563 | 308.0 |
| 2026-02-11T01:26 | 57.44427 | 20.72397 | 0.586 | 283.9 |
| 2026-02-11T01:36 | 57.44545 | 20.72392 | 0.424 | 358.6 |
| 2026-02-11T01:46 | 57.44615 | 20.72193 | 0.461 | 303.4 |
| 2026-02-11T01:56 | 57.44470 | 20.72260 | 0.540 | 166.1 |
| 2026-02-11T02:06 | 57.44239 | 20.72545 | 1.000 | 146.4 |
| 2026-02-11T02:16 | 57.44119 | 20.72714 | 0.545 | 142.8 |
| 2026-02-11T02:26 | 57.44055 | 20.72683 | 0.239 | 194.9 |
| 2026-02-11T02:36 | 57.44139 | 20.72541 | 0.410 | 317.8 |
| 2026-02-11T02:46 | 57.44231 | 20.72401 | 0.431 | 320.5 |
| 2026-02-11T02:56 | 57.44203 | 20.72593 | 0.387 | 105.3 |
| 2026-02-11T03:06 | 57.44078 | 20.72863 | 0.693 | 130.6 |
| 2026-02-11T03:16 | 57.44104 | 20.73101 | 0.473 | 78.2 |
| 2026-02-11T03:26 | 57.44181 | 20.73036 | 0.304 | 335.2 |
| 2026-02-11T03:36 | 57.44165 | 20.72743 | 0.572 | 264.1 |
| 2026-02-11T03:46 | 57.44269 | 20.72626 | 0.439 | 328.8 |
| 2026-02-11T03:56 | 57.44236 | 20.72451 | 0.360 | 250.7 |
| 2026-02-11T04:06 | 57.44295 | 20.72604 | 0.366 | 54.5 |
| 2026-02-11T04:16 | 57.44414 | 20.72596 | 0.432 | 357.9 |
| 2026-02-11T04:26 | 57.44298 | 20.72543 | 0.431 | 193.8 |
| 2026-02-11T04:36 | 57.43954 | 20.72852 | 1.379 | 154.2 |
| 2026-02-11T04:46 | 57.43932 | 20.72591 | 0.514 | 261.1 |
| 2026-02-11T04:56 | 57.44065 | 20.72472 | 0.533 | 334.5 |
| 2026-02-11T05:06 | 57.44058 | 20.72165 | 0.598 | 267.5 |
| 2026-02-11T05:16 | 57.44133 | 20.72149 | 0.272 | 353.1 |
| 2026-02-11T05:26 | 57.44180 | 20.72352 | 0.429 | 66.9 |
| 2026-02-11T05:36 | 57.44109 | 20.72532 | 0.433 | 126.0 |
| 2026-02-11T05:46 | 57.44155 | 20.72618 | 0.236 | 45.5 |
| 2026-02-11T05:56 | 57.42659 | 20.69051 | 8.788 | 232.1 |
| 2026-02-11T06:06 | 57.40774 | 20.64347 | 11.399 | 233.4 |
| 2026-02-11T06:16 | 57.38831 | 20.59706 | 11.435 | 232.2 |
| 2026-02-11T06:26 | 57.36731 | 20.55296 | 11.452 | 228.6 |
| 2026-02-11T06:36 | 57.35554 | 20.51508 | 8.513 | 240.1 |
| 2026-02-11T06:46 | 57.35034 | 20.49150 | 4.965 | 247.8 |
| 2026-02-11T06:56 | 57.35014 | 20.48377 | 1.507 | 267.3 |
| 2026-02-11T07:06 | 57.35031 | 20.48491 | 0.230 | 74.5 |
| 2026-02-11T07:16 | 57.35068 | 20.48493 | 0.131 | 2.0 |
| 2026-02-11T07:26 | 57.35085 | 20.48547 | 0.121 | 58.9 |
| 2026-02-11T07:36 | 57.35101 | 20.48575 | 0.079 | 43.4 |
| 2026-02-11T07:46 | 57.35002 | 20.48659 | 0.395 | 155.4 |
| 2026-02-11T07:56 | 57.35007 | 20.48703 | 0.088 | 76.0 |
| 2026-02-11T08:06 | 57.35033 | 20.48701 | 0.093 | 358.2 |
| 2026-02-11T08:16 | 57.35065 | 20.48739 | 0.135 | 32.8 |
| 2026-02-11T08:26 | 57.35155 | 20.48670 | 0.351 | 337.6 |
| 2026-02-11T08:36 | 57.35079 | 20.48680 | 0.272 | 176.1 |
| 2026-02-11T08:46 | 57.35008 | 20.48752 | 0.292 | 151.1 |
| 2026-02-11T08:56 | 57.35074 | 20.48749 | 0.234 | 358.7 |
| 2026-02-11T09:06 | 57.35090 | 20.48641 | 0.220 | 286.2 |
| 2026-02-11T09:16 | 57.35086 | 20.48696 | 0.109 | 99.5 |
| 2026-02-11T09:26 | 57.35066 | 20.48692 | 0.070 | 186.1 |
| 2026-02-11T09:36 | 57.35056 | 20.48773 | 0.161 | 103.2 |
| 2026-02-11T09:46 | 57.35229 | 20.48351 | 1.032 | 307.2 |
| 2026-02-11T09:56 | 57.35201 | 20.48487 | 0.283 | 110.7 |
| 2026-02-11T10:06 | 57.35180 | 20.48532 | 0.117 | 131.0 |
| 2026-02-11T10:16 | 57.35114 | 20.48606 | 0.278 | 148.8 |
| 2026-02-11T10:26 | 57.35059 | 20.48675 | 0.239 | 146.0 |
| 2026-02-11T10:36 | 57.35000 | 20.48744 | 0.253 | 147.7 |
| 2026-02-11T10:46 | 57.34920 | 20.48740 | 0.288 | 181.5 |
| 2026-02-11T10:56 | 57.34820 | 20.48734 | 0.360 | 182.0 |
| 2026-02-11T11:06 | 57.34804 | 20.48131 | 1.176 | 267.1 |
| 2026-02-11T11:16 | 57.35224 | 20.47890 | 1.589 | 342.8 |
| 2026-02-11T11:26 | 57.35150 | 20.47990 | 0.331 | 144.0 |
| 2026-02-11T11:36 | 57.35061 | 20.47826 | 0.454 | 224.6 |
| 2026-02-11T11:46 | 57.35082 | 20.47916 | 0.191 | 66.5 |
| 2026-02-11T11:56 | 57.35034 | 20.47962 | 0.194 | 152.6 |
| 2026-02-11T12:06 | 57.34970 | 20.47987 | 0.236 | 168.2 |
| 2026-02-11T12:16 | 57.34939 | 20.48098 | 0.244 | 116.8 |
| 2026-02-11T12:26 | 57.34885 | 20.48134 | 0.208 | 160.4 |
| 2026-02-11T12:36 | 57.34833 | 20.48213 | 0.241 | 140.6 |
| 2026-02-11T12:46 | 57.34784 | 20.48285 | 0.229 | 141.8 |
| 2026-02-11T12:56 | 57.34610 | 20.47872 | 1.021 | 232.1 |
| 2026-02-11T13:06 | 57.35080 | 20.47508 | 1.838 | 337.3 |
| 2026-02-11T13:16 | 57.35124 | 20.48119 | 1.202 | 82.5 |
| 2026-02-11T13:26 | 57.35131 | 20.48217 | 0.192 | 82.0 |
| 2026-02-11T13:36 | 57.35117 | 20.48353 | 0.269 | 100.6 |
| 2026-02-11T13:46 | 57.35112 | 20.48418 | 0.128 | 97.9 |
| 2026-02-11T13:56 | 57.35096 | 20.48465 | 0.110 | 123.0 |
| 2026-02-11T14:06 | 57.35093 | 20.48506 | 0.080 | 97.8 |
| 2026-02-11T14:16 | 57.35069 | 20.48575 | 0.160 | 122.6 |
| 2026-02-11T14:26 | 57.35087 | 20.48632 | 0.129 | 59.1 |
| 2026-02-11T14:36 | 57.34947 | 20.47848 | 1.608 | 251.7 |
| 2026-02-11T14:46 | 57.34852 | 20.47948 | 0.394 | 150.7 |
| 2026-02-11T14:56 | 57.34853 | 20.48046 | 0.193 | 89.1 |
| 2026-02-11T15:06 | 57.34845 | 20.48191 | 0.283 | 95.5 |
| 2026-02-11T15:16 | 57.34858 | 20.48322 | 0.259 | 79.2 |
| 2026-02-11T15:26 | 57.34881 | 20.48458 | 0.279 | 73.0 |
| 2026-02-11T15:36 | 57.34902 | 20.48526 | 0.151 | 60.5 |
| 2026-02-11T15:46 | 57.34915 | 20.48705 | 0.353 | 82.2 |
| 2026-02-11T15:56 | 57.34862 | 20.48747 | 0.206 | 156.8 |
| 2026-02-11T16:06 | 57.34774 | 20.49174 | 0.891 | 110.9 |
| 2026-02-11T16:16 | 57.34780 | 20.49884 | 1.385 | 89.1 |
| 2026-02-11T16:26 | 57.34837 | 20.49591 | 0.609 | 289.8 |
| 2026-02-11T16:36 | 57.34887 | 20.49992 | 0.802 | 77.2 |
| 2026-02-11T16:46 | 57.34923 | 20.50392 | 0.792 | 80.3 |
| 2026-02-11T16:56 | 57.35146 | 20.49004 | 2.823 | 286.5 |
| 2026-02-11T17:06 | 57.35344 | 20.47846 | 2.368 | 287.6 |
| 2026-02-11T17:16 | 57.35460 | 20.47681 | 0.528 | 322.5 |
| 2026-02-11T17:26 | 57.35433 | 20.47775 | 0.209 | 118.5 |
| 2026-02-11T17:36 | 57.35432 | 20.47630 | 0.283 | 269.5 |
| 2026-02-11T17:46 | 57.35442 | 20.47350 | 0.546 | 273.7 |
| 2026-02-11T17:56 | 57.35432 | 20.47317 | 0.075 | 240.8 |
| 2026-02-11T18:06 | 57.35437 | 20.47523 | 0.402 | 87.5 |
| 2026-02-11T18:16 | 57.35464 | 20.47659 | 0.284 | 69.7 |
| 2026-02-11T18:26 | 57.35513 | 20.47637 | 0.181 | 345.8 |
| 2026-02-11T18:36 | 57.35550 | 20.47684 | 0.165 | 34.4 |
| 2026-02-11T18:46 | 57.35587 | 20.47872 | 0.388 | 70.4 |
| 2026-02-11T18:56 | 57.35630 | 20.48104 | 0.479 | 71.0 |
| 2026-02-11T19:06 | 57.35644 | 20.48371 | 0.522 | 84.4 |
| 2026-02-11T19:16 | 57.35661 | 20.48528 | 0.313 | 78.2 |
| 2026-02-11T19:26 | 57.35678 | 20.48655 | 0.253 | 76.8 |
| 2026-02-11T19:36 | 57.35719 | 20.48733 | 0.214 | 45.6 |
| 2026-02-11T19:46 | 57.35758 | 20.48766 | 0.155 | 24.6 |
| 2026-02-11T19:56 | 57.35833 | 20.48637 | 0.368 | 316.9 |
| 2026-02-11T20:06 | 57.35856 | 20.48889 | 0.498 | 80.2 |
| 2026-02-11T20:16 | 57.35869 | 20.49193 | 0.595 | 85.7 |
| 2026-02-11T20:26 | 57.35877 | 20.49369 | 0.343 | 85.3 |
| 2026-02-11T20:36 | 57.35876 | 20.49540 | 0.333 | 90.4 |
| 2026-02-11T20:46 | 57.35864 | 20.49719 | 0.352 | 97.0 |
| 2026-02-11T20:56 | 57.35833 | 20.49888 | 0.347 | 108.8 |
| 2026-02-11T21:06 | 57.35791 | 20.49993 | 0.255 | 126.5 |
| 2026-02-11T21:16 | 57.35731 | 20.50106 | 0.308 | 134.0 |
| 2026-02-11T21:26 | 57.35682 | 20.50230 | 0.301 | 126.4 |
| 2026-02-11T21:36 | 57.35609 | 20.50345 | 0.346 | 139.6 |
| 2026-02-11T21:46 | 57.35534 | 20.50458 | 0.349 | 140.8 |
| 2026-02-11T21:56 | 57.35467 | 20.50534 | 0.283 | 148.7 |
| 2026-02-11T22:06 | 57.35413 | 20.50584 | 0.218 | 153.4 |
| 2026-02-11T22:16 | 57.35377 | 20.50590 | 0.130 | 174.7 |
| 2026-02-11T22:26 | 57.35372 | 20.50569 | 0.044 | 249.2 |
| 2026-02-11T22:36 | 57.35373 | 20.50760 | 0.372 | 89.6 |
| 2026-02-11T22:46 | 57.35401 | 20.50936 | 0.357 | 73.8 |
| 2026-02-11T22:56 | 57.35401 | 20.51170 | 0.456 | 90.1 |
| 2026-02-11T23:06 | 57.35395 | 20.51393 | 0.436 | 92.8 |
| 2026-02-11T23:16 | 57.35406 | 20.51600 | 0.406 | 83.9 |
| 2026-02-11T23:26 | 57.35409 | 20.51816 | 0.420 | 89.0 |
| 2026-02-11T23:36 | 57.35407 | 20.52010 | 0.379 | 91.1 |
| 2026-02-11T23:46 | 57.35410 | 20.52210 | 0.391 | 87.9 |
| 2026-02-11T23:56 | 57.35397 | 20.52383 | 0.341 | 98.5 |
| 2026-02-12T00:06 | 57.35381 | 20.52549 | 0.327 | 99.6 |
| 2026-02-12T00:16 | 57.35320 | 20.52645 | 0.289 | 139.5 |
| 2026-02-12T00:26 | 57.35228 | 20.52709 | 0.355 | 159.3 |
| 2026-02-12T00:36 | 57.35023 | 20.52475 | 0.870 | 211.6 |
| 2026-02-12T00:46 | 57.34871 | 20.51169 | 2.605 | 257.9 |
| 2026-02-12T00:56 | 57.34734 | 20.49784 | 2.745 | 259.7 |
| 2026-02-12T01:06 | 57.34581 | 20.48416 | 2.723 | 258.3 |
| 2026-02-12T01:16 | 57.34405 | 20.47106 | 2.631 | 256.0 |
| 2026-02-12T01:26 | 57.34511 | 20.46681 | 0.913 | 294.8 |
| 2026-02-12T01:36 | 57.34453 | 20.46785 | 0.291 | 136.0 |
| 2026-02-12T01:46 | 57.34401 | 20.47002 | 0.464 | 114.1 |
| 2026-02-12T01:56 | 57.34394 | 20.47012 | 0.033 | 142.4 |
| 2026-02-12T02:06 | 57.34372 | 20.47195 | 0.365 | 102.2 |
| 2026-02-12T02:16 | 57.34406 | 20.47357 | 0.338 | 69.0 |
| 2026-02-12T02:26 | 57.34417 | 20.47460 | 0.205 | 78.5 |
| 2026-02-12T02:36 | 57.34420 | 20.47545 | 0.165 | 86.8 |
| 2026-02-12T02:46 | 57.34426 | 20.47585 | 0.081 | 74.0 |
| 2026-02-12T02:56 | 57.34443 | 20.47581 | 0.060 | 353.8 |
| 2026-02-12T03:06 | 57.34459 | 20.47715 | 0.267 | 77.0 |
| 2026-02-12T03:16 | 57.34493 | 20.47877 | 0.339 | 69.0 |
| 2026-02-12T03:26 | 57.34533 | 20.48056 | 0.378 | 67.3 |
| 2026-02-12T03:36 | 57.34584 | 20.48247 | 0.416 | 63.6 |
| 2026-02-12T03:46 | 57.34638 | 20.48370 | 0.308 | 51.4 |
| 2026-02-12T03:56 | 57.34697 | 20.48536 | 0.388 | 56.4 |
| 2026-02-12T04:06 | 57.34776 | 20.48757 | 0.516 | 56.5 |
| 2026-02-12T04:16 | 57.35538 | 20.50377 | 4.185 | 49.0 |
| 2026-02-12T04:26 | 57.36316 | 20.52310 | 4.697 | 53.3 |
| 2026-02-12T04:36 | 57.37092 | 20.54341 | 4.846 | 54.7 |
| 2026-02-12T04:46 | 57.37862 | 20.56341 | 4.785 | 54.5 |
| 2026-02-12T04:56 | 57.38637 | 20.58320 | 4.761 | 54.0 |
| 2026-02-12T05:06 | 57.39404 | 20.60323 | 4.782 | 54.6 |
| 2026-02-12T05:16 | 57.40161 | 20.62338 | 4.778 | 55.2 |
| 2026-02-12T05:26 | 57.40916 | 20.64320 | 4.723 | 54.8 |
| 2026-02-12T05:36 | 57.41264 | 20.65232 | 2.172 | 54.7 |
| 2026-02-12T05:46 | 57.41601 | 20.66085 | 2.058 | 53.8 |
| 2026-02-12T05:56 | 57.42177 | 20.67564 | 3.547 | 54.2 |
| 2026-02-12T06:06 | 57.42766 | 20.69059 | 3.603 | 53.8 |
| 2026-02-12T06:16 | 57.43361 | 20.70597 | 3.680 | 54.4 |
| 2026-02-12T06:26 | 57.43934 | 20.72102 | 3.583 | 54.8 |
| 2026-02-12T06:36 | 57.44112 | 20.72402 | 0.868 | 42.3 |
| 2026-02-12T06:46 | 57.44240 | 20.72539 | 0.534 | 29.9 |
| 2026-02-12T06:56 | 57.44326 | 20.72421 | 0.386 | 323.3 |
| 2026-02-12T07:06 | 57.44288 | 20.72501 | 0.209 | 131.6 |
| 2026-02-12T07:16 | 57.44311 | 20.72505 | 0.086 | 4.9 |
| 2026-02-12T07:26 | 57.44306 | 20.72531 | 0.054 | 110.0 |
| 2026-02-12T07:36 | 57.44303 | 20.72547 | 0.034 | 109.7 |
| 2026-02-12T07:46 | 57.44296 | 20.72549 | 0.025 | 175.0 |
| 2026-02-12T07:56 | 57.44306 | 20.72522 | 0.063 | 304.4 |
| 2026-02-12T08:06 | 57.44315 | 20.72508 | 0.042 | 320.4 |
| 2026-02-12T08:16 | 57.44293 | 20.72539 | 0.100 | 143.4 |
| 2026-02-12T08:26 | 57.44327 | 20.72493 | 0.152 | 324.6 |
| 2026-02-12T08:36 | 57.44340 | 20.72034 | 0.895 | 272.9 |
| 2026-02-12T08:46 | 57.44139 | 20.71947 | 0.745 | 193.2 |
| 2026-02-12T08:56 | 57.44184 | 20.72028 | 0.227 | 44.4 |
| 2026-02-12T09:06 | 57.44235 | 20.72161 | 0.318 | 54.5 |
| 2026-02-12T09:16 | 57.44287 | 20.72281 | 0.298 | 51.0 |
| 2026-02-12T09:26 | 57.44323 | 20.72413 | 0.288 | 63.1 |
| 2026-02-12T09:36 | 57.44346 | 20.72541 | 0.264 | 71.5 |
| 2026-02-12T09:46 | 57.44438 | 20.72579 | 0.338 | 12.4 |
| 2026-02-12T09:56 | 57.43844 | 20.72359 | 2.182 | 191.3 |
| 2026-02-12T10:06 | 57.43899 | 20.72435 | 0.249 | 36.6 |
| 2026-02-12T10:16 | 57.43956 | 20.72573 | 0.338 | 52.6 |
| 2026-02-12T10:26 | 57.44019 | 20.72707 | 0.345 | 48.9 |
| 2026-02-12T10:36 | 57.44098 | 20.72803 | 0.340 | 33.4 |
| 2026-02-12T10:46 | 57.44160 | 20.72869 | 0.259 | 29.7 |
| 2026-02-12T10:56 | 57.44202 | 20.72917 | 0.176 | 32.1 |
| 2026-02-12T11:06 | 57.43829 | 20.72300 | 1.804 | 221.7 |
| 2026-02-12T11:16 | 57.43870 | 20.72301 | 0.148 | 0.6 |
| 2026-02-12T11:26 | 57.43918 | 20.72356 | 0.205 | 31.5 |
| 2026-02-12T11:36 | 57.43955 | 20.72438 | 0.209 | 50.1 |
| 2026-02-12T11:46 | 57.44007 | 20.72484 | 0.206 | 25.4 |
| 2026-02-12T11:56 | 57.44038 | 20.72596 | 0.246 | 63.1 |
| 2026-02-12T12:06 | 57.44073 | 20.72681 | 0.210 | 52.1 |
| 2026-02-12T12:16 | 57.44096 | 20.72763 | 0.177 | 62.8 |
| 2026-02-12T12:26 | 57.44135 | 20.72835 | 0.199 | 45.1 |
| 2026-02-12T12:36 | 57.44158 | 20.72925 | 0.195 | 64.6 |
| 2026-02-12T12:46 | 57.44210 | 20.73026 | 0.272 | 46.2 |
| 2026-02-12T12:56 | 57.44279 | 20.73103 | 0.290 | 31.1 |
| 2026-02-12T13:06 | 57.44331 | 20.73443 | 0.687 | 74.0 |
| 2026-02-12T13:16 | 57.44121 | 20.76143 | 5.304 | 98.2 |
| 2026-02-12T13:26 | 57.43877 | 20.81228 | 9.927 | 95.1 |
| 2026-02-12T13:36 | 57.43614 | 20.86487 | 10.271 | 95.3 |
| 2026-02-12T13:46 | 57.43440 | 20.91842 | 10.434 | 93.4 |
| 2026-02-12T13:56 | 57.43346 | 20.97194 | 10.413 | 91.8 |
| 2026-02-12T14:06 | 57.43285 | 21.02546 | 10.411 | 91.2 |
| 2026-02-12T14:16 | 57.43240 | 21.07857 | 10.332 | 90.9 |
| 2026-02-12T14:26 | 57.43165 | 21.13110 | 10.220 | 91.5 |
| 2026-02-12T14:36 | 57.43060 | 21.18304 | 10.111 | 92.1 |
| 2026-02-12T14:46 | 57.42950 | 21.23489 | 10.093 | 92.2 |
| 2026-02-12T14:56 | 57.42868 | 21.28731 | 10.200 | 91.6 |
| 2026-02-12T15:06 | 57.42778 | 21.33992 | 10.237 | 91.8 |
| 2026-02-12T15:16 | 57.42522 | 21.39252 | 10.274 | 95.1 |
| 2026-02-12T15:26 | 57.42171 | 21.44541 | 10.366 | 97.0 |
| 2026-02-12T15:36 | 57.41733 | 21.49877 | 10.501 | 98.6 |
| 2026-02-12T15:46 | 57.40346 | 21.53020 | 7.901 | 129.3 |
| 2026-02-12T15:56 | 57.39502 | 21.54904 | 4.767 | 129.7 |
| 2026-02-12T16:06 | 57.40067 | 21.57300 | 5.091 | 66.4 |
| 2026-02-12T16:16 | 57.39795 | 21.58031 | 1.728 | 124.6 |
| 2026-02-12T16:26 | 57.39795 | 21.58027 | 0.007 | 267.1 |
| 2026-02-12T16:36 | 57.39795 | 21.58028 | 0.002 | 142.9 |
| 2026-02-12T16:46 | 57.39796 | 21.58028 | 0.005 | 11.7 |
| 2026-02-12T16:56 | 57.39796 | 21.58028 | 0.002 | 231.6 |
| 2026-02-12T17:06 | 57.39796 | 21.58026 | 0.004 | 294.9 |
| 2026-02-12T17:16 | 57.39795 | 21.58027 | 0.004 | 142.1 |
| 2026-02-12T17:26 | 57.39795 | 21.58026 | 0.004 | 216.6 |
| 2026-02-12T17:36 | 57.39796 | 21.58026 | 0.003 | 10.2 |
| 2026-02-12T17:46 | 57.39794 | 21.58027 | 0.004 | 166.2 |
| 2026-02-12T17:56 | 57.39795 | 21.58027 | 0.001 | 39.0 |
| 2026-02-12T18:06 | 57.39794 | 21.58026 | 0.002 | 250.6 |
| 2026-02-12T18:16 | 57.39794 | 21.58026 | 0.002 | 199.8 |
| 2026-02-12T18:26 | 57.39794 | 21.58027 | 0.003 | 35.8 |
| 2026-02-12T18:36 | 57.39795 | 21.58026 | 0.003 | 348.6 |
| 2026-02-12T18:46 | 57.39795 | 21.58026 | 0.001 | 219.0 |
| 2026-02-12T18:56 | 57.39794 | 21.58025 | 0.003 | 220.3 |
| 2026-02-12T19:06 | 57.39794 | 21.58024 | 0.003 | 219.0 |
| 2026-02-12T19:16 | 57.39795 | 21.58024 | 0.003 | 0.0 |
| 2026-02-12T19:26 | 57.39794 | 21.58025 | 0.003 | 138.0 |
| 2026-02-12T19:36 | 57.39794 | 21.58026 | 0.003 | 63.7 |
| 2026-02-12T19:46 | 57.39796 | 21.58026 | 0.005 | 339.5 |
| 2026-02-12T19:56 | 57.39796 | 21.58025 | 0.003 | 356.1 |
| 2026-02-12T20:06 | 57.39794 | 21.58026 | 0.010 | 177.7 |
| 2026-02-12T20:16 | 57.39794 | 21.58026 | 0.001 | 104.8 |
| 2026-02-12T20:26 | 57.39794 | 21.58025 | 0.004 | 304.8 |
| 2026-02-12T20:36 | 57.39796 | 21.58026 | 0.005 | 17.9 |
| 2026-02-12T20:46 | 57.39795 | 21.58026 | 0.003 | 181.9 |
| 2026-02-12T20:56 | 57.39797 | 21.58027 | 0.007 | 19.8 |
| 2026-02-12T21:06 | 57.39796 | 21.58026 | 0.004 | 203.8 |
| 2026-02-12T21:16 | 57.39796 | 21.58026 | 0.001 | 47.2 |
| 2026-02-12T21:26 | 57.39796 | 21.58026 | 0.001 | 151.6 |
| 2026-02-12T21:36 | 57.39796 | 21.58026 | 0.003 | 334.7 |
| 2026-02-12T21:46 | 57.39796 | 21.58025 | 0.003 | 198.6 |
| 2026-02-12T21:56 | 57.39796 | 21.58025 | 0.001 | 306.5 |
| 2026-02-12T22:06 | 57.39795 | 21.58025 | 0.001 | 180.0 |
| 2026-02-12T22:16 | 57.39796 | 21.58025 | 0.002 | 29.6 |
| 2026-02-12T22:26 | 57.39795 | 21.58025 | 0.004 | 186.2 |
| 2026-02-12T22:36 | 57.39796 | 21.58025 | 0.003 | 8.8 |
| 2026-02-12T22:46 | 57.39796 | 21.58026 | 0.002 | 53.5 |
| 2026-02-12T22:56 | 57.39796 | 21.58026 | 0.000 | 90.0 |
| 2026-02-12T23:06 | 57.39796 | 21.58025 | 0.002 | 249.7 |
| 2026-02-12T23:16 | 57.39796 | 21.58026 | 0.002 | 60.9 |
| 2026-02-12T23:26 | 57.39793 | 21.58025 | 0.010 | 191.7 |
| 2026-02-12T23:36 | 57.39795 | 21.58024 | 0.005 | 333.7 |
| 2026-02-12T23:46 | 57.39795 | 21.58026 | 0.005 | 52.0 |
| 2026-02-12T23:56 | 57.39795 | 21.58026 | 0.000 | 151.6 |
| 2026-02-13T00:06 | 57.39794 | 21.58025 | 0.004 | 222.0 |
| 2026-02-13T00:16 | 57.39794 | 21.58025 | 0.002 | 117.9 |
| 2026-02-13T00:26 | 57.39795 | 21.58025 | 0.002 | 331.6 |
| 2026-02-13T00:36 | 57.39794 | 21.58024 | 0.004 | 200.7 |
| 2026-02-13T00:46 | 57.39795 | 21.58023 | 0.007 | 336.0 |
| 2026-02-13T00:56 | 57.39795 | 21.58024 | 0.003 | 137.2 |
| 2026-02-13T01:06 | 57.39795 | 21.58023 | 0.001 | 270.0 |
| 2026-02-13T01:16 | 57.39795 | 21.58024 | 0.002 | 71.4 |
| 2026-02-13T01:26 | 57.39795 | 21.58024 | 0.001 | 238.3 |
| 2026-02-13T01:36 | 57.39794 | 21.58025 | 0.004 | 134.9 |
| 2026-02-13T01:46 | 57.39794 | 21.58024 | 0.003 | 294.9 |
| 2026-02-13T01:56 | 57.39795 | 21.58025 | 0.002 | 32.3 |
| 2026-02-13T02:06 | 57.39793 | 21.58024 | 0.006 | 189.0 |
| 2026-02-13T02:16 | 57.39793 | 21.58024 | 0.001 | 249.7 |
| 2026-02-13T02:26 | 57.39794 | 21.58024 | 0.003 | 13.0 |
| 2026-02-13T02:36 | 57.39794 | 21.58025 | 0.001 | 44.1 |
| 2026-02-13T02:46 | 57.39794 | 21.58024 | 0.002 | 299.4 |
| 2026-02-13T02:56 | 57.39795 | 21.58025 | 0.004 | 84.1 |
| 2026-02-13T03:06 | 57.39795 | 21.58026 | 0.001 | 75.2 |
| 2026-02-13T03:16 | 57.39794 | 21.58025 | 0.002 | 252.8 |
| 2026-02-13T03:26 | 57.39795 | 21.58025 | 0.000 | 2.4 |
| 2026-02-13T03:36 | 57.39794 | 21.58024 | 0.003 | 220.9 |
| 2026-02-13T03:46 | 57.39796 | 21.58025 | 0.006 | 25.1 |
| 2026-02-13T03:56 | 57.39795 | 21.58024 | 0.003 | 224.7 |
| 2026-02-13T04:06 | 57.39794 | 21.58025 | 0.004 | 151.6 |
| 2026-02-13T04:16 | 57.39795 | 21.58025 | 0.002 | 10.2 |
| 2026-02-13T04:26 | 57.39795 | 21.58025 | 0.003 | 355.6 |
| 2026-02-13T04:36 | 57.39795 | 21.58026 | 0.003 | 148.3 |
| 2026-02-13T04:46 | 57.39794 | 21.58026 | 0.001 | 245.2 |
| 2026-02-13T04:56 | 57.39794 | 21.58024 | 0.004 | 222.0 |
| 2026-02-13T05:06 | 57.39795 | 21.58024 | 0.004 | 3.1 |
| 2026-02-13T05:16 | 57.39792 | 21.58023 | 0.010 | 190.9 |
| 2026-02-13T05:26 | 57.39794 | 21.58023 | 0.008 | 1.3 |
| 2026-02-13T05:36 | 57.39796 | 21.58023 | 0.008 | 1.5 |
| 2026-02-13T05:46 | 57.39796 | 21.58023 | 0.002 | 169.8 |
| 2026-02-13T05:56 | 57.39795 | 21.58023 | 0.002 | 223.4 |
| 2026-02-13T06:06 | 57.39795 | 21.58023 | 0.001 | 172.3 |
| 2026-02-13T06:16 | 57.39794 | 21.58023 | 0.002 | 147.1 |
| 2026-02-13T06:26 | 57.39795 | 21.58024 | 0.002 | 12.2 |
| 2026-02-13T06:36 | 57.39795 | 21.58024 | 0.002 | 15.1 |
| 2026-02-13T06:46 | 57.39795 | 21.58024 | 0.002 | 173.8 |
| 2026-02-13T06:56 | 57.39796 | 21.58024 | 0.004 | 3.4 |
| 2026-02-13T07:06 | 57.39796 | 21.58024 | 0.001 | 161.5 |
| 2026-02-13T07:16 | 57.39796 | 21.58024 | 0.001 | 340.2 |
| 2026-02-13T07:26 | 57.39795 | 21.58023 | 0.004 | 205.9 |
| 2026-02-13T07:36 | 57.39795 | 21.58023 | 0.001 | 255.2 |
| 2026-02-13T07:46 | 57.39795 | 21.58025 | 0.004 | 105.5 |
| 2026-02-13T07:56 | 57.39797 | 21.58024 | 0.007 | 350.8 |
| 2026-02-13T08:06 | 57.39796 | 21.58026 | 0.004 | 112.4 |
| 2026-02-13T08:16 | 57.39795 | 21.58026 | 0.005 | 177.6 |
| 2026-02-13T08:26 | 57.39794 | 21.58024 | 0.004 | 239.9 |
| 2026-02-13T08:36 | 57.39795 | 21.58026 | 0.004 | 60.9 |
| 2026-02-13T08:46 | 57.39794 | 21.58025 | 0.006 | 206.6 |
| 2026-02-13T08:56 | 57.39793 | 21.58026 | 0.002 | 107.0 |
| 2026-02-13T09:06 | 57.39793 | 21.58026 | 0.001 | 284.1 |
| 2026-02-13T09:16 | 57.39794 | 21.58025 | 0.004 | 353.8 |
| 2026-02-13T09:26 | 57.39794 | 21.58026 | 0.001 | 144.2 |
| 2026-02-13T09:36 | 57.39795 | 21.58026 | 0.003 | 0.0 |
| 2026-02-13T09:46 | 57.39796 | 21.58027 | 0.004 | 38.0 |
| 2026-02-13T09:56 | 57.39794 | 21.58024 | 0.008 | 220.6 |
| 2026-02-13T10:06 | 57.39796 | 21.58026 | 0.006 | 26.8 |
| 2026-02-13T10:16 | 57.39795 | 21.58025 | 0.003 | 204.8 |
| 2026-02-13T10:26 | 57.39795 | 21.58026 | 0.002 | 77.0 |
| 2026-02-13T10:36 | 57.39795 | 21.58024 | 0.004 | 246.4 |
| 2026-02-13T10:46 | 57.39797 | 21.58027 | 0.009 | 30.6 |
| 2026-02-13T10:56 | 57.39795 | 21.58026 | 0.007 | 189.7 |
| 2026-02-13T11:06 | 57.39794 | 21.58024 | 0.005 | 220.6 |
| 2026-02-13T11:16 | 57.39795 | 21.58025 | 0.004 | 20.0 |
| 2026-02-13T11:26 | 57.39796 | 21.58025 | 0.003 | 13.0 |
| 2026-02-13T11:36 | 57.39796 | 21.58027 | 0.004 | 75.2 |
| 2026-02-13T11:46 | 57.39797 | 21.58026 | 0.005 | 333.5 |
| 2026-02-13T11:56 | 57.39794 | 21.58025 | 0.012 | 192.0 |
| 2026-02-13T12:06 | 57.39796 | 21.58026 | 0.007 | 20.3 |
| 2026-02-13T12:16 | 57.39794 | 21.58026 | 0.007 | 178.4 |
| 2026-02-13T12:26 | 57.39794 | 21.58025 | 0.002 | 278.8 |
| 2026-02-13T12:36 | 57.39794 | 21.58027 | 0.004 | 73.7 |
| 2026-02-13T12:46 | 57.39794 | 21.58026 | 0.002 | 235.2 |
| 2026-02-13T12:56 | 57.39794 | 21.58026 | 0.001 | 270.0 |
| 2026-02-13T13:06 | 57.39795 | 21.58026 | 0.004 | 2.8 |
| 2026-02-13T13:16 | 57.39795 | 21.58027 | 0.002 | 132.8 |
| 2026-02-13T13:26 | 57.39795 | 21.58026 | 0.000 | 331.6 |
| 2026-02-13T13:36 | 57.39793 | 21.58028 | 0.010 | 157.7 |
| 2026-02-13T13:46 | 57.39793 | 21.58027 | 0.004 | 306.5 |
| 2026-02-13T13:56 | 57.39795 | 21.58027 | 0.007 | 6.5 |
| 2026-02-13T14:06 | 57.39795 | 21.58026 | 0.002 | 270.0 |
| 2026-02-13T14:16 | 57.39795 | 21.58026 | 0.001 | 180.0 |
| 2026-02-13T14:26 | 57.39794 | 21.58027 | 0.002 | 111.7 |
| 2026-02-13T14:36 | 57.39796 | 21.58026 | 0.007 | 339.6 |
| 2026-02-13T14:46 | 57.39795 | 21.58026 | 0.005 | 173.8 |
| 2026-02-13T14:56 | 57.39795 | 21.58026 | 0.003 | 336.2 |
| 2026-02-13T15:06 | 57.39794 | 21.58026 | 0.004 | 155.2 |
| 2026-02-13T15:16 | 57.39795 | 21.58026 | 0.001 | 321.0 |
| 2026-02-13T15:26 | 57.39795 | 21.58026 | 0.003 | 1.6 |
| 2026-02-13T15:36 | 57.39795 | 21.58027 | 0.002 | 138.3 |
| 2026-02-13T15:46 | 57.39794 | 21.58025 | 0.005 | 242.1 |
| 2026-02-13T15:56 | 57.39797 | 21.58025 | 0.011 | 6.4 |
| 2026-02-13T16:06 | 57.39795 | 21.58025 | 0.009 | 180.0 |
| 2026-02-13T16:16 | 57.39796 | 21.58026 | 0.003 | 25.3 |
| 2026-02-13T16:26 | 57.39796 | 21.58026 | 0.001 | 90.0 |
| 2026-02-13T16:36 | 57.39796 | 21.58026 | 0.001 | 294.9 |
| 2026-02-13T16:46 | 57.39795 | 21.58027 | 0.004 | 149.0 |
| 2026-02-13T16:56 | 57.39794 | 21.58026 | 0.004 | 205.6 |
| 2026-02-13T17:06 | 57.39795 | 21.58028 | 0.006 | 39.7 |
| 2026-02-13T17:16 | 57.39796 | 21.58027 | 0.003 | 291.6 |
| 2026-02-13T17:26 | 57.39794 | 21.58027 | 0.005 | 184.4 |
| 2026-02-13T17:36 | 57.39795 | 21.58027 | 0.003 | 0.0 |
| 2026-02-13T17:46 | 57.39795 | 21.58027 | 0.001 | 69.7 |
| 2026-02-13T17:56 | 57.39794 | 21.58027 | 0.003 | 191.4 |
| 2026-02-13T18:06 | 57.39794 | 21.58027 | 0.001 | 15.1 |
| 2026-02-13T18:16 | 57.39794 | 21.58027 | 0.001 | 219.0 |
| 2026-02-13T18:26 | 57.39795 | 21.58027 | 0.003 | 8.8 |
| 2026-02-13T18:36 | 57.39795 | 21.58026 | 0.002 | 270.0 |
| 2026-02-13T18:46 | 57.39795 | 21.58027 | 0.002 | 100.5 |
| 2026-02-13T18:56 | 57.39794 | 21.58025 | 0.003 | 249.7 |
| 2026-02-13T19:06 | 57.39796 | 21.58024 | 0.007 | 342.6 |
| 2026-02-13T19:16 | 57.39795 | 21.58026 | 0.005 | 141.0 |
| 2026-02-13T19:26 | 57.39795 | 21.58025 | 0.002 | 208.4 |
| 2026-02-13T19:36 | 57.39795 | 21.58025 | 0.002 | 245.2 |
| 2026-02-13T19:46 | 57.39796 | 21.58025 | 0.004 | 15.1 |
| 2026-02-13T19:56 | 57.39795 | 21.58024 | 0.005 | 201.3 |
| 2026-02-13T20:06 | 57.39795 | 21.58025 | 0.003 | 31.3 |
| 2026-02-13T20:16 | 57.39796 | 21.58025 | 0.004 | 350.8 |
| 2026-02-13T20:26 | 57.39796 | 21.58025 | 0.002 | 174.9 |
| 2026-02-13T20:36 | 57.39796 | 21.58026 | 0.003 | 111.7 |
| 2026-02-13T20:46 | 57.39795 | 21.58025 | 0.002 | 233.5 |
| 2026-02-13T20:56 | 57.39795 | 21.58025 | 0.001 | 270.0 |
| 2026-02-13T21:06 | 57.39796 | 21.58025 | 0.002 | 347.8 |
| 2026-02-13T21:16 | 57.39796 | 21.58026 | 0.002 | 69.7 |
| 2026-02-13T21:26 | 57.39796 | 21.58025 | 0.002 | 260.4 |
| 2026-02-13T21:36 | 57.39796 | 21.58026 | 0.003 | 58.3 |
| 2026-02-13T21:46 | 57.39795 | 21.58025 | 0.004 | 187.7 |
| 2026-02-13T21:56 | 57.39795 | 21.58025 | 0.002 | 308.4 |
| 2026-02-13T22:06 | 57.39795 | 21.58026 | 0.002 | 126.5 |
| 2026-02-13T22:16 | 57.39794 | 21.58025 | 0.003 | 227.2 |
| 2026-02-13T22:26 | 57.39796 | 21.58025 | 0.005 | 15.1 |
| 2026-02-13T22:36 | 57.39794 | 21.58026 | 0.005 | 171.8 |
| 2026-02-13T22:46 | 57.39795 | 21.58024 | 0.005 | 322.6 |
| 2026-02-13T22:56 | 57.39794 | 21.58026 | 0.005 | 125.2 |
| 2026-02-13T23:06 | 57.39795 | 21.58027 | 0.003 | 31.3 |
| 2026-02-13T23:16 | 57.39795 | 21.58025 | 0.005 | 270.0 |
| 2026-02-13T23:26 | 57.39795 | 21.58026 | 0.002 | 126.5 |
| 2026-02-13T23:36 | 57.39793 | 21.58024 | 0.006 | 208.4 |
| 2026-02-13T23:46 | 57.39795 | 21.58024 | 0.004 | 352.3 |
| 2026-02-13T23:56 | 57.39795 | 21.58025 | 0.002 | 90.0 |
| 2026-02-14T00:06 | 57.39794 | 21.58025 | 0.003 | 171.2 |
| 2026-02-14T00:16 | 57.39794 | 21.58025 | 0.001 | 15.1 |
| 2026-02-14T00:26 | 57.39793 | 21.58025 | 0.003 | 198.6 |
| 2026-02-14T00:36 | 57.39795 | 21.58025 | 0.005 | 14.0 |
| 2026-02-14T00:46 | 57.39795 | 21.58024 | 0.003 | 281.9 |
| 2026-02-14T00:56 | 57.39795 | 21.58024 | 0.001 | 84.4 |
| 2026-02-14T01:06 | 57.39794 | 21.58023 | 0.002 | 238.3 |
| 2026-02-14T01:16 | 57.39794 | 21.58025 | 0.004 | 124.8 |
| 2026-02-14T01:26 | 57.39794 | 21.58024 | 0.001 | 331.6 |
| 2026-02-14T01:36 | 57.39795 | 21.58024 | 0.002 | 342.1 |
| 2026-02-14T01:46 | 57.39793 | 21.58023 | 0.006 | 206.6 |
| 2026-02-14T01:56 | 57.39794 | 21.58024 | 0.005 | 30.5 |
| 2026-02-14T02:06 | 57.39792 | 21.58024 | 0.007 | 173.8 |
| 2026-02-14T02:16 | 57.39794 | 21.58023 | 0.008 | 336.4 |
| 2026-02-14T02:26 | 57.39793 | 21.58023 | 0.007 | 170.3 |
| 2026-02-14T02:36 | 57.39795 | 21.58025 | 0.009 | 27.3 |
| 2026-02-14T02:46 | 57.39795 | 21.58025 | 0.001 | 219.0 |
| 2026-02-14T02:56 | 57.39795 | 21.58024 | 0.003 | 297.9 |
| 2026-02-14T03:06 | 57.39794 | 21.58024 | 0.004 | 158.6 |
| 2026-02-14T03:16 | 57.39795 | 21.58024 | 0.003 | 335.2 |
| 2026-02-14T03:26 | 57.39795 | 21.58023 | 0.002 | 270.0 |
| 2026-02-14T03:36 | 57.39795 | 21.58025 | 0.004 | 90.0 |
| 2026-02-14T03:46 | 57.39795 | 21.58024 | 0.002 | 287.2 |
| 2026-02-14T03:56 | 57.39794 | 21.58025 | 0.003 | 137.2 |
| 2026-02-14T04:06 | 57.39795 | 21.58025 | 0.003 | 15.1 |
| 2026-02-14T04:16 | 57.39794 | 21.58024 | 0.004 | 211.0 |
| 2026-02-14T04:26 | 57.39793 | 21.58025 | 0.003 | 132.8 |
| 2026-02-14T04:36 | 57.39793 | 21.58026 | 0.001 | 110.3 |
| 2026-02-14T04:46 | 57.39794 | 21.58024 | 0.004 | 314.6 |
| 2026-02-14T04:56 | 57.39794 | 21.58024 | 0.002 | 180.0 |
| 2026-02-14T05:06 | 57.39794 | 21.58023 | 0.003 | 317.2 |
| 2026-02-14T05:16 | 57.39797 | 21.58024 | 0.010 | 6.6 |
| 2026-02-14T05:26 | 57.39796 | 21.58023 | 0.002 | 185.1 |
| 2026-02-14T05:36 | 57.39797 | 21.58023 | 0.001 | 290.3 |
| 2026-02-14T05:46 | 57.39796 | 21.58023 | 0.003 | 197.1 |
| 2026-02-14T05:56 | 57.39796 | 21.58024 | 0.003 | 105.9 |
| 2026-02-14T06:06 | 57.39796 | 21.58024 | 0.001 | 340.2 |
| 2026-02-14T06:16 | 57.39795 | 21.58022 | 0.004 | 217.9 |
| 2026-02-14T06:26 | 57.39795 | 21.58022 | 0.002 | 180.0 |
| 2026-02-14T06:36 | 57.39796 | 21.58025 | 0.006 | 50.8 |
| 2026-02-14T06:46 | 57.39796 | 21.58023 | 0.004 | 284.2 |
| 2026-02-14T06:56 | 57.39795 | 21.58023 | 0.004 | 174.4 |
| 2026-02-14T07:06 | 57.39796 | 21.58023 | 0.006 | 12.2 |
| 2026-02-14T07:16 | 57.39796 | 21.58023 | 0.001 | 208.4 |
| 2026-02-14T07:26 | 57.39796 | 21.58023 | 0.001 | 0.0 |
| 2026-02-14T07:36 | 57.39798 | 21.58023 | 0.004 | 351.6 |
| 2026-02-14T07:46 | 57.39798 | 21.58024 | 0.002 | 72.8 |
| 2026-02-14T07:56 | 57.39794 | 21.58025 | 0.013 | 175.0 |
| 2026-02-14T08:06 | 57.39794 | 21.58027 | 0.004 | 101.6 |
| 2026-02-14T08:16 | 57.39793 | 21.58027 | 0.001 | 169.8 |
| 2026-02-14T08:26 | 57.39793 | 21.58026 | 0.003 | 199.8 |
| 2026-02-14T08:36 | 57.39793 | 21.58025 | 0.003 | 325.2 |
| 2026-02-14T08:46 | 57.39795 | 21.58025 | 0.007 | 3.2 |
| 2026-02-14T08:56 | 57.39795 | 21.58024 | 0.002 | 249.7 |
| 2026-02-14T09:06 | 57.39793 | 21.58024 | 0.005 | 184.1 |
| 2026-02-14T09:16 | 57.39796 | 21.58026 | 0.010 | 20.8 |
| 2026-02-14T09:26 | 57.39794 | 21.58026 | 0.008 | 184.0 |
| 2026-02-14T09:36 | 57.39795 | 21.58026 | 0.003 | 349.8 |
| 2026-02-14T09:46 | 57.39795 | 21.58024 | 0.003 | 293.1 |
| 2026-02-14T09:56 | 57.39796 | 21.58025 | 0.004 | 16.4 |
| 2026-02-14T10:06 | 57.39796 | 21.58026 | 0.003 | 98.1 |
| 2026-02-14T10:16 | 57.39795 | 21.58026 | 0.004 | 177.4 |
| 2026-02-14T10:26 | 57.39795 | 21.58025 | 0.002 | 235.2 |
| 2026-02-14T10:36 | 57.39795 | 21.58027 | 0.003 | 40.3 |
| 2026-02-14T10:46 | 57.39795 | 21.58025 | 0.003 | 278.1 |
| 2026-02-14T10:56 | 57.39796 | 21.58025 | 0.001 | 340.2 |
| 2026-02-14T11:06 | 57.39796 | 21.58025 | 0.001 | 344.9 |
| 2026-02-14T11:16 | 57.39796 | 21.58027 | 0.004 | 113.5 |
| 2026-02-14T11:26 | 57.39797 | 21.58027 | 0.005 | 0.0 |
| 2026-02-14T11:36 | 57.39794 | 21.58026 | 0.009 | 182.6 |
| 2026-02-14T11:46 | 57.39795 | 21.58026 | 0.003 | 0.0 |
| 2026-02-14T11:56 | 57.39794 | 21.58026 | 0.003 | 214.8 |
| 2026-02-14T12:06 | 57.39794 | 21.58026 | 0.001 | 107.2 |
| 2026-02-14T12:16 | 57.39795 | 21.58026 | 0.004 | 353.8 |
| 2026-02-14T12:26 | 57.39794 | 21.58026 | 0.003 | 187.7 |
| 2026-02-14T12:36 | 57.39795 | 21.58026 | 0.002 | 0.0 |
| 2026-02-14T12:46 | 57.39795 | 21.58027 | 0.003 | 90.0 |
| 2026-02-14T12:56 | 57.39795 | 21.58026 | 0.002 | 264.1 |
| 2026-02-14T13:06 | 57.39795 | 21.58027 | 0.002 | 73.5 |
| 2026-02-14T13:16 | 57.39794 | 21.58027 | 0.004 | 182.6 |
| 2026-02-14T13:26 | 57.39794 | 21.58026 | 0.003 | 262.5 |
| 2026-02-14T13:36 | 57.39793 | 21.58027 | 0.005 | 137.5 |
| 2026-02-14T13:46 | 57.39794 | 21.58028 | 0.004 | 30.7 |
| 2026-02-14T13:56 | 57.39795 | 21.58026 | 0.006 | 303.7 |
| 2026-02-14T14:06 | 57.39794 | 21.58028 | 0.003 | 108.1 |
| 2026-02-14T14:16 | 57.39795 | 21.58028 | 0.002 | 0.0 |
| 2026-02-14T14:26 | 57.39795 | 21.58028 | 0.001 | 39.0 |
| 2026-02-14T14:36 | 57.39795 | 21.58027 | 0.002 | 235.2 |
| 2026-02-14T14:46 | 57.39796 | 21.58026 | 0.003 | 315.3 |
| 2026-02-14T14:56 | 57.39796 | 21.58026 | 0.001 | 349.8 |
| 2026-02-14T15:06 | 57.39795 | 21.58026 | 0.003 | 164.2 |
| 2026-02-14T15:16 | 57.39795 | 21.58026 | 0.001 | 223.1 |
| 2026-02-14T15:26 | 57.39795 | 21.58026 | 0.000 | 331.6 |
| 2026-02-14T15:36 | 57.39794 | 21.58025 | 0.001 | 215.8 |
| 2026-02-14T15:46 | 57.39795 | 21.58024 | 0.002 | 283.0 |
| 2026-02-14T15:56 | 57.39795 | 21.58025 | 0.001 | 101.6 |
| 2026-02-14T16:06 | 57.39795 | 21.58026 | 0.003 | 48.1 |
| 2026-02-14T16:16 | 57.39795 | 21.58026 | 0.001 | 306.5 |
| 2026-02-14T16:26 | 57.39795 | 21.58026 | 0.001 | 114.8 |
| 2026-02-14T16:36 | 57.39796 | 21.58027 | 0.003 | 56.0 |
| 2026-02-14T16:46 | 57.39793 | 21.58027 | 0.009 | 174.9 |
| 2026-02-14T16:56 | 57.39795 | 21.58026 | 0.009 | 341.8 |
| 2026-02-14T17:06 | 57.39794 | 21.58026 | 0.006 | 174.2 |
| 2026-02-14T17:16 | 57.39796 | 21.58026 | 0.006 | 356.6 |
| 2026-02-14T17:26 | 57.39794 | 21.58027 | 0.005 | 153.7 |
| 2026-02-14T17:36 | 57.39794 | 21.58027 | 0.001 | 245.2 |
| 2026-02-14T17:46 | 57.39794 | 21.58027 | 0.001 | 144.2 |
| 2026-02-14T17:56 | 57.39795 | 21.58025 | 0.006 | 307.7 |
| 2026-02-14T18:06 | 57.39794 | 21.58026 | 0.003 | 138.0 |
| 2026-02-14T18:16 | 57.39795 | 21.58027 | 0.002 | 51.6 |
| 2026-02-14T18:26 | 57.39795 | 21.58027 | 0.002 | 23.4 |
| 2026-02-14T18:36 | 57.39795 | 21.58025 | 0.005 | 252.1 |
| 2026-02-14T18:46 | 57.39795 | 21.58025 | 0.001 | 90.0 |
| 2026-02-14T18:56 | 57.39794 | 21.58025 | 0.001 | 187.7 |
| 2026-02-14T19:06 | 57.39794 | 21.58024 | 0.003 | 238.3 |
| 2026-02-14T19:16 | 57.39794 | 21.58025 | 0.002 | 117.9 |
| 2026-02-14T19:26 | 57.39794 | 21.58025 | 0.002 | 28.4 |
| 2026-02-14T19:36 | 57.39792 | 21.58026 | 0.009 | 177.5 |
| 2026-02-14T19:46 | 57.39796 | 21.58026 | 0.014 | 7.1 |
| 2026-02-14T19:56 | 57.39794 | 21.58025 | 0.006 | 206.8 |
| 2026-02-14T20:06 | 57.39796 | 21.58027 | 0.008 | 23.4 |
| 2026-02-14T20:16 | 57.39795 | 21.58025 | 0.005 | 215.8 |
| 2026-02-14T20:26 | 57.39796 | 21.58027 | 0.006 | 44.5 |
| 2026-02-14T20:36 | 57.39796 | 21.58025 | 0.004 | 239.9 |
| 2026-02-14T20:46 | 57.39795 | 21.58026 | 0.001 | 164.9 |
| 2026-02-14T20:56 | 57.39795 | 21.58025 | 0.001 | 190.2 |
| 2026-02-14T21:06 | 57.39795 | 21.58026 | 0.002 | 47.2 |
| 2026-02-14T21:16 | 57.39796 | 21.58026 | 0.003 | 7.7 |
| 2026-02-14T21:26 | 57.39795 | 21.58025 | 0.006 | 214.8 |
| 2026-02-14T21:36 | 57.39795 | 21.58024 | 0.002 | 309.5 |
| 2026-02-14T21:46 | 57.39796 | 21.58025 | 0.004 | 35.8 |
| 2026-02-14T21:56 | 57.39795 | 21.58025 | 0.004 | 180.0 |
| 2026-02-14T22:06 | 57.39794 | 21.58025 | 0.001 | 172.3 |
| 2026-02-14T22:16 | 57.39794 | 21.58026 | 0.004 | 138.7 |
| 2026-02-14T22:26 | 57.39794 | 21.58026 | 0.001 | 331.6 |
| 2026-02-14T22:36 | 57.39794 | 21.58024 | 0.004 | 258.4 |
| 2026-02-14T22:46 | 57.39794 | 21.58026 | 0.003 | 77.0 |
| 2026-02-14T22:56 | 57.39793 | 21.58026 | 0.004 | 170.8 |
| 2026-02-14T23:06 | 57.39797 | 21.58024 | 0.016 | 347.3 |
| 2026-02-14T23:16 | 57.39794 | 21.58026 | 0.011 | 167.8 |
| 2026-02-14T23:26 | 57.39793 | 21.58025 | 0.004 | 193.8 |
| 2026-02-14T23:36 | 57.39794 | 21.58027 | 0.006 | 33.6 |
| 2026-02-14T23:46 | 57.39794 | 21.58025 | 0.004 | 235.7 |
| 2026-02-14T23:56 | 57.39795 | 21.58023 | 0.005 | 317.5 |
| 2026-02-15T00:06 | 57.39793 | 21.58026 | 0.008 | 132.8 |
| 2026-02-15T00:16 | 57.39792 | 21.58024 | 0.006 | 217.6 |
| 2026-02-15T00:26 | 57.39793 | 21.58025 | 0.005 | 15.1 |
| 2026-02-15T00:36 | 57.39794 | 21.58022 | 0.007 | 299.1 |
| 2026-02-15T00:46 | 57.39794 | 21.58025 | 0.005 | 90.0 |
| 2026-02-15T00:56 | 57.39794 | 21.58023 | 0.003 | 236.0 |
| 2026-02-15T01:06 | 57.39793 | 21.58024 | 0.003 | 150.3 |
| 2026-02-15T01:16 | 57.39793 | 21.58024 | 0.001 | 318.5 |
| 2026-02-15T01:26 | 57.39793 | 21.58023 | 0.003 | 215.8 |
| 2026-02-15T01:36 | 57.39793 | 21.58024 | 0.003 | 69.8 |
| 2026-02-15T01:46 | 57.39793 | 21.58024 | 0.001 | 348.0 |
| 2026-02-15T01:56 | 57.39794 | 21.58025 | 0.003 | 44.0 |
| 2026-02-15T02:06 | 57.39792 | 21.58026 | 0.006 | 172.3 |
| 2026-02-15T02:16 | 57.39792 | 21.58025 | 0.001 | 252.8 |
| 2026-02-15T02:26 | 57.39794 | 21.58023 | 0.010 | 334.6 |
| 2026-02-15T02:36 | 57.39795 | 21.58028 | 0.009 | 83.3 |
| 2026-02-15T02:46 | 57.39794 | 21.58025 | 0.005 | 257.5 |
| 2026-02-15T02:56 | 57.39794 | 21.58024 | 0.002 | 220.8 |
| 2026-02-15T03:06 | 57.39793 | 21.58025 | 0.003 | 142.4 |
| 2026-02-15T03:16 | 57.39793 | 21.58024 | 0.002 | 249.7 |
| 2026-02-15T03:26 | 57.39794 | 21.58024 | 0.004 | 344.9 |
| 2026-02-15T03:36 | 57.39794 | 21.58026 | 0.004 | 75.8 |
| 2026-02-15T03:46 | 57.39794 | 21.58024 | 0.005 | 242.6 |
| 2026-02-15T03:56 | 57.39793 | 21.58024 | 0.001 | 121.7 |
| 2026-02-15T04:06 | 57.39795 | 21.58024 | 0.004 | 0.0 |
| 2026-02-15T04:16 | 57.39794 | 21.58025 | 0.004 | 170.8 |
| 2026-02-15T04:26 | 57.39794 | 21.58026 | 0.003 | 83.0 |
| 2026-02-15T04:36 | 57.39793 | 21.58025 | 0.003 | 238.3 |
| 2026-02-15T04:46 | 57.39792 | 21.58024 | 0.005 | 199.1 |
| 2026-02-15T04:56 | 57.39794 | 21.58024 | 0.009 | 0.0 |
| 2026-02-15T05:06 | 57.39793 | 21.58024 | 0.004 | 177.2 |
| 2026-02-15T05:16 | 57.39794 | 21.58023 | 0.005 | 333.7 |
| 2026-02-15T05:26 | 57.39796 | 21.58024 | 0.005 | 24.2 |
| 2026-02-15T05:36 | 57.39795 | 21.58024 | 0.003 | 187.7 |
| 2026-02-15T05:46 | 57.39796 | 21.58024 | 0.003 | 13.0 |
| 2026-02-15T05:56 | 57.39794 | 21.58024 | 0.004 | 191.1 |
| 2026-02-15T06:06 | 57.39795 | 21.58022 | 0.003 | 297.9 |
| 2026-02-15T06:16 | 57.39795 | 21.58023 | 0.001 | 138.0 |
| 2026-02-15T06:26 | 57.39795 | 21.58022 | 0.001 | 321.0 |
| 2026-02-15T06:36 | 57.39795 | 21.58023 | 0.001 | 15.1 |
| 2026-02-15T06:46 | 57.39795 | 21.58023 | 0.001 | 114.8 |
| 2026-02-15T06:56 | 57.39796 | 21.58024 | 0.003 | 25.3 |
| 2026-02-15T07:06 | 57.39930 | 21.57999 | 0.484 | 354.3 |
| 2026-02-15T07:16 | 57.39918 | 21.56560 | 2.801 | 269.1 |
| 2026-02-15T07:26 | 57.39596 | 21.54264 | 4.618 | 255.4 |
| 2026-02-15T07:36 | 57.40699 | 21.52497 | 5.259 | 319.1 |
| 2026-02-15T07:46 | 57.42015 | 21.50260 | 6.439 | 317.5 |
| 2026-02-15T07:56 | 57.42621 | 21.47426 | 5.931 | 291.6 |
| 2026-02-15T08:06 | 57.43074 | 21.44926 | 5.132 | 288.6 |
| 2026-02-15T08:16 | 57.43060 | 21.44685 | 0.470 | 264.0 |
| 2026-02-15T08:26 | 57.42809 | 21.46122 | 2.938 | 108.0 |
| 2026-02-15T08:36 | 57.41895 | 21.46654 | 3.455 | 162.6 |
| 2026-02-15T08:46 | 57.40677 | 21.44727 | 5.774 | 220.5 |
| 2026-02-15T08:56 | 57.39529 | 21.42398 | 6.140 | 227.6 |
| 2026-02-15T09:06 | 57.38253 | 21.39962 | 6.609 | 225.9 |
| 2026-02-15T09:16 | 57.37003 | 21.37440 | 6.667 | 227.5 |
| 2026-02-15T09:26 | 57.35954 | 21.34905 | 6.223 | 232.5 |
| 2026-02-15T09:36 | 57.35032 | 21.32124 | 6.357 | 238.5 |
| 2026-02-15T09:46 | 57.33939 | 21.29584 | 6.330 | 231.5 |
| 2026-02-15T09:56 | 57.32183 | 21.29386 | 6.341 | 183.5 |
| 2026-02-15T10:06 | 57.31856 | 21.25447 | 7.774 | 261.3 |
| 2026-02-15T10:16 | 57.32662 | 21.20307 | 10.440 | 286.2 |
| 2026-02-15T10:26 | 57.34010 | 21.15379 | 10.769 | 296.8 |
| 2026-02-15T10:36 | 57.35374 | 21.10372 | 10.930 | 296.8 |
| 2026-02-15T10:46 | 57.36701 | 21.05334 | 10.922 | 296.0 |
| 2026-02-15T10:56 | 57.37213 | 21.02417 | 5.976 | 288.0 |
| 2026-02-15T11:06 | 57.37214 | 20.97915 | 8.771 | 270.0 |
| 2026-02-15T11:16 | 57.38652 | 20.93506 | 10.031 | 301.1 |
| 2026-02-15T11:26 | 57.39137 | 20.91294 | 4.648 | 292.1 |
| 2026-02-15T11:36 | 57.39300 | 20.88403 | 5.660 | 275.9 |
| 2026-02-15T11:46 | 57.40679 | 20.84059 | 9.809 | 300.5 |
| 2026-02-15T11:56 | 57.42221 | 20.79044 | 11.234 | 299.7 |
| 2026-02-15T12:06 | 57.43764 | 20.74379 | 10.642 | 301.5 |
| 2026-02-15T12:16 | 57.44179 | 20.72650 | 3.681 | 294.1 |
| 2026-02-15T12:26 | 57.44175 | 20.72663 | 0.030 | 124.0 |
| 2026-02-15T12:36 | 57.44081 | 20.72566 | 0.387 | 209.0 |
| 2026-02-15T12:46 | 57.44006 | 20.72367 | 0.472 | 235.4 |
| 2026-02-15T12:56 | 57.44011 | 20.72196 | 0.332 | 272.7 |
| 2026-02-15T13:06 | 57.44050 | 20.73227 | 2.009 | 85.9 |
| 2026-02-15T13:16 | 57.44299 | 20.72960 | 1.034 | 330.0 |
| 2026-02-15T13:26 | 57.44255 | 20.72857 | 0.255 | 232.4 |
| 2026-02-15T13:36 | 57.44287 | 20.72765 | 0.210 | 302.3 |
| 2026-02-15T13:46 | 57.44322 | 20.72673 | 0.219 | 305.3 |
| 2026-02-15T13:56 | 57.44314 | 20.72577 | 0.190 | 262.0 |
| 2026-02-15T14:06 | 57.44360 | 20.72475 | 0.256 | 309.7 |
| 2026-02-15T14:16 | 57.44277 | 20.72328 | 0.412 | 223.9 |
| 2026-02-15T14:26 | 57.44313 | 20.72148 | 0.373 | 290.0 |
| 2026-02-15T14:36 | 57.43973 | 20.73137 | 2.280 | 122.5 |
| 2026-02-15T14:46 | 57.43962 | 20.72871 | 0.520 | 265.6 |
| 2026-02-15T14:56 | 57.43994 | 20.72689 | 0.371 | 288.1 |
| 2026-02-15T15:06 | 57.44019 | 20.72493 | 0.392 | 283.0 |
| 2026-02-15T15:16 | 57.44061 | 20.72323 | 0.365 | 294.9 |
| 2026-02-15T15:26 | 57.44082 | 20.72218 | 0.217 | 290.0 |
| 2026-02-15T15:36 | 57.43990 | 20.72191 | 0.335 | 189.0 |
| 2026-02-15T15:46 | 57.44017 | 20.72251 | 0.153 | 50.3 |
| 2026-02-15T15:56 | 57.44047 | 20.71910 | 0.673 | 279.3 |
| 2026-02-15T16:06 | 57.43972 | 20.71696 | 0.496 | 236.7 |
| 2026-02-15T16:16 | 57.43934 | 20.71500 | 0.405 | 250.1 |
| 2026-02-15T16:26 | 57.44004 | 20.71399 | 0.322 | 322.4 |
| 2026-02-15T16:36 | 57.43979 | 20.71055 | 0.675 | 262.3 |
| 2026-02-15T16:46 | 57.43940 | 20.70987 | 0.194 | 223.2 |
| 2026-02-15T16:56 | 57.44021 | 20.71063 | 0.327 | 26.9 |
| 2026-02-15T17:06 | 57.44148 | 20.71043 | 0.461 | 355.1 |
| 2026-02-15T17:16 | 57.44094 | 20.70683 | 0.727 | 254.3 |
| 2026-02-15T17:26 | 57.44045 | 20.70487 | 0.420 | 245.2 |
| 2026-02-15T17:36 | 57.44006 | 20.70237 | 0.506 | 254.0 |
| 2026-02-15T17:46 | 57.43981 | 20.69732 | 0.986 | 264.7 |
| 2026-02-15T17:56 | 57.43990 | 20.69340 | 0.763 | 272.5 |
| 2026-02-15T18:06 | 57.43993 | 20.69281 | 0.114 | 276.3 |
| 2026-02-15T18:16 | 57.43995 | 20.68946 | 0.651 | 270.6 |
| 2026-02-15T18:26 | 57.43963 | 20.68783 | 0.340 | 249.6 |
| 2026-02-15T18:36 | 57.44076 | 20.68701 | 0.437 | 338.8 |
| 2026-02-15T18:46 | 57.44058 | 20.68406 | 0.578 | 263.6 |
| 2026-02-15T18:56 | 57.43974 | 20.68315 | 0.349 | 210.3 |
| 2026-02-15T19:06 | 57.43943 | 20.68198 | 0.255 | 244.1 |
| 2026-02-15T19:16 | 57.43861 | 20.68145 | 0.314 | 198.9 |
| 2026-02-15T19:26 | 57.43842 | 20.68237 | 0.190 | 111.2 |
| 2026-02-15T19:36 | 57.43814 | 20.67969 | 0.530 | 259.0 |
| 2026-02-15T19:46 | 57.43795 | 20.67908 | 0.137 | 240.6 |
| 2026-02-15T19:56 | 57.43942 | 20.68699 | 1.627 | 71.0 |
| 2026-02-15T20:06 | 57.44031 | 20.70015 | 2.579 | 82.9 |
| 2026-02-15T20:16 | 57.44124 | 20.71328 | 2.576 | 82.5 |
| 2026-02-15T20:26 | 57.44227 | 20.72722 | 2.735 | 82.2 |
| 2026-02-15T20:36 | 57.44334 | 20.74088 | 2.685 | 81.8 |
| 2026-02-15T20:46 | 57.44342 | 20.75129 | 2.023 | 89.2 |
| 2026-02-15T20:56 | 57.44257 | 20.74800 | 0.710 | 244.4 |
| 2026-02-15T21:06 | 57.44197 | 20.74645 | 0.369 | 234.5 |
| 2026-02-15T21:16 | 57.44017 | 20.73675 | 1.996 | 251.0 |
| 2026-02-15T21:26 | 57.43959 | 20.73244 | 0.864 | 256.0 |
| 2026-02-15T21:36 | 57.43929 | 20.73164 | 0.189 | 235.3 |
| 2026-02-15T21:46 | 57.43998 | 20.73166 | 0.247 | 0.7 |
| 2026-02-15T21:56 | 57.43900 | 20.72870 | 0.675 | 238.5 |
| 2026-02-15T22:06 | 57.43749 | 20.72600 | 0.757 | 223.8 |
| 2026-02-15T22:16 | 57.43614 | 20.72474 | 0.545 | 206.9 |
| 2026-02-15T22:26 | 57.43479 | 20.72244 | 0.660 | 222.5 |
| 2026-02-15T22:36 | 57.43334 | 20.72011 | 0.693 | 220.9 |
| 2026-02-15T22:46 | 57.43160 | 20.71969 | 0.630 | 187.5 |
| 2026-02-15T22:56 | 57.43002 | 20.71651 | 0.841 | 227.3 |
| 2026-02-15T23:06 | 57.42898 | 20.71531 | 0.442 | 211.8 |
| 2026-02-15T23:16 | 57.42794 | 20.71406 | 0.447 | 213.2 |
| 2026-02-15T23:26 | 57.42663 | 20.71173 | 0.655 | 223.8 |
| 2026-02-15T23:36 | 57.42558 | 20.70973 | 0.542 | 225.9 |
| 2026-02-15T23:46 | 57.42463 | 20.70797 | 0.485 | 224.7 |
| 2026-02-15T23:56 | 57.42396 | 20.70640 | 0.389 | 231.7 |
| 2026-02-16T00:06 | 57.42297 | 20.70432 | 0.540 | 228.7 |
| 2026-02-16T00:16 | 57.42215 | 20.70194 | 0.548 | 237.4 |
| 2026-02-16T00:26 | 57.42190 | 20.69933 | 0.517 | 260.0 |
| 2026-02-16T00:36 | 57.42221 | 20.69718 | 0.432 | 284.7 |
| 2026-02-16T00:46 | 57.42341 | 20.69534 | 0.561 | 320.4 |
| 2026-02-16T00:56 | 57.42299 | 20.69036 | 0.979 | 261.2 |
| 2026-02-16T01:06 | 57.42298 | 20.68635 | 0.782 | 269.7 |
| 2026-02-16T01:16 | 57.42355 | 20.68359 | 0.575 | 290.9 |
| 2026-02-16T01:26 | 57.42427 | 20.68123 | 0.526 | 299.4 |
| 2026-02-16T01:36 | 57.42268 | 20.67684 | 1.028 | 236.2 |
| 2026-02-16T01:46 | 57.42097 | 20.67244 | 1.057 | 234.1 |
| 2026-02-16T01:56 | 57.41962 | 20.66816 | 0.963 | 239.8 |
| 2026-02-16T02:06 | 57.41931 | 20.66424 | 0.771 | 261.5 |
| 2026-02-16T02:16 | 57.42210 | 20.66438 | 1.008 | 1.6 |
| 2026-02-16T02:26 | 57.42425 | 20.67161 | 1.606 | 61.1 |
| 2026-02-16T02:36 | 57.42605 | 20.67768 | 1.347 | 61.2 |
| 2026-02-16T02:46 | 57.42789 | 20.68377 | 1.357 | 60.9 |
| 2026-02-16T02:56 | 57.42996 | 20.69028 | 1.469 | 59.5 |
| 2026-02-16T03:06 | 57.43197 | 20.69654 | 1.418 | 59.2 |
| 2026-02-16T03:16 | 57.43405 | 20.70294 | 1.455 | 58.9 |
| 2026-02-16T03:26 | 57.43550 | 20.70800 | 1.112 | 62.0 |
| 2026-02-16T03:36 | 57.43796 | 20.71454 | 1.552 | 55.1 |
| 2026-02-16T03:46 | 57.44036 | 20.72295 | 1.849 | 62.2 |
| 2026-02-16T03:56 | 57.43971 | 20.72352 | 0.258 | 154.5 |
| 2026-02-16T04:06 | 57.44052 | 20.72143 | 0.500 | 305.6 |
| 2026-02-16T04:16 | 57.43911 | 20.71811 | 0.822 | 231.8 |
| 2026-02-16T04:26 | 57.43824 | 20.71725 | 0.356 | 208.1 |
| 2026-02-16T04:36 | 57.43845 | 20.71841 | 0.239 | 71.4 |
| 2026-02-16T04:46 | 57.43677 | 20.71488 | 0.915 | 228.6 |
| 2026-02-16T04:56 | 57.44346 | 20.71934 | 2.564 | 19.7 |
| 2026-02-16T05:06 | 57.45049 | 20.72407 | 2.698 | 19.9 |
| 2026-02-16T05:16 | 57.45766 | 20.72902 | 2.759 | 20.4 |
| 2026-02-16T05:26 | 57.46275 | 20.73381 | 2.058 | 26.9 |
| 2026-02-16T05:36 | 57.46357 | 20.73683 | 0.657 | 63.4 |
| 2026-02-16T05:46 | 57.46091 | 20.73545 | 0.994 | 195.7 |
| 2026-02-16T05:56 | 57.45625 | 20.73125 | 1.869 | 205.9 |
| 2026-02-16T06:06 | 57.45373 | 20.72847 | 1.056 | 210.7 |
| 2026-02-16T06:16 | 57.45117 | 20.72523 | 1.120 | 214.3 |
| 2026-02-16T06:26 | 57.44629 | 20.72182 | 1.880 | 200.6 |
| 2026-02-16T06:36 | 57.44459 | 20.72618 | 1.045 | 125.8 |
| 2026-02-16T06:46 | 57.44347 | 20.72850 | 0.605 | 131.9 |
| 2026-02-16T06:56 | 57.44255 | 20.72970 | 0.406 | 144.8 |
| 2026-02-16T07:06 | 57.44179 | 20.72827 | 0.393 | 225.2 |
| 2026-02-16T07:16 | 57.44191 | 20.72566 | 0.508 | 274.8 |
| 2026-02-16T07:26 | 57.44152 | 20.72317 | 0.505 | 253.8 |
| 2026-02-16T07:36 | 57.44102 | 20.72296 | 0.182 | 192.8 |
| 2026-02-16T07:46 | 57.43990 | 20.72188 | 0.457 | 207.4 |
| 2026-02-16T07:56 | 57.43883 | 20.72132 | 0.400 | 195.8 |
| 2026-02-16T08:06 | 57.43812 | 20.72077 | 0.280 | 202.7 |
| 2026-02-16T08:16 | 57.43093 | 20.70435 | 4.114 | 230.9 |
| 2026-02-16T08:26 | 57.42224 | 20.68302 | 5.198 | 232.9 |
| 2026-02-16T08:36 | 57.41389 | 20.66214 | 5.056 | 233.5 |
| 2026-02-16T08:46 | 57.40529 | 20.64108 | 5.142 | 232.9 |
| 2026-02-16T08:56 | 57.39673 | 20.62006 | 5.125 | 233.0 |
| 2026-02-16T09:06 | 57.38874 | 20.59773 | 5.216 | 236.5 |
| 2026-02-16T09:16 | 57.37997 | 20.57418 | 5.570 | 235.4 |
| 2026-02-16T09:26 | 57.36978 | 20.54805 | 6.279 | 234.2 |
| 2026-02-16T09:36 | 57.35936 | 20.52134 | 6.417 | 234.2 |
| 2026-02-16T09:46 | 57.35131 | 20.49506 | 5.889 | 240.5 |
| 2026-02-16T09:56 | 57.34981 | 20.48661 | 1.734 | 251.8 |
| 2026-02-16T10:06 | 57.35049 | 20.48576 | 0.295 | 325.7 |
| 2026-02-16T10:16 | 57.34857 | 20.48339 | 0.832 | 213.7 |
| 2026-02-16T10:26 | 57.34725 | 20.48322 | 0.478 | 184.0 |
| 2026-02-16T10:36 | 57.34696 | 20.48363 | 0.129 | 141.4 |
| 2026-02-16T10:46 | 57.34591 | 20.48407 | 0.389 | 167.4 |
| 2026-02-16T10:56 | 57.34453 | 20.48385 | 0.501 | 184.9 |
| 2026-02-16T11:06 | 57.34307 | 20.48302 | 0.549 | 197.2 |
| 2026-02-16T11:16 | 57.34227 | 20.48335 | 0.297 | 167.2 |
| 2026-02-16T11:26 | 57.33996 | 20.48239 | 0.855 | 192.6 |
| 2026-02-16T11:36 | 57.33770 | 20.48022 | 0.918 | 207.5 |
| 2026-02-16T11:46 | 57.34273 | 20.48287 | 1.888 | 15.8 |
| 2026-02-16T11:56 | 57.35057 | 20.48388 | 2.831 | 4.0 |
| 2026-02-16T12:06 | 57.35770 | 20.48735 | 2.660 | 14.8 |
| 2026-02-16T12:16 | 57.35558 | 20.48754 | 0.764 | 177.3 |
| 2026-02-16T12:26 | 57.35395 | 20.48664 | 0.615 | 196.5 |
| 2026-02-16T12:36 | 57.35279 | 20.48548 | 0.475 | 208.4 |
| 2026-02-16T12:46 | 57.35204 | 20.48444 | 0.339 | 216.7 |
| 2026-02-16T12:56 | 57.35057 | 20.48347 | 0.561 | 199.7 |
| 2026-02-16T13:06 | 57.34864 | 20.48165 | 0.783 | 206.9 |
| 2026-02-16T13:16 | 57.34726 | 20.48072 | 0.529 | 200.2 |
| 2026-02-16T13:26 | 57.34531 | 20.47833 | 0.845 | 213.4 |
| 2026-02-16T13:36 | 57.34883 | 20.48261 | 1.520 | 33.3 |
| 2026-02-16T13:46 | 57.35245 | 20.48447 | 1.355 | 15.5 |
| 2026-02-16T13:56 | 57.35201 | 20.48332 | 0.273 | 234.7 |
| 2026-02-16T14:06 | 57.35111 | 20.48335 | 0.324 | 179.0 |
| 2026-02-16T14:16 | 57.35039 | 20.48266 | 0.294 | 207.6 |
| 2026-02-16T14:26 | 57.35014 | 20.48263 | 0.092 | 183.5 |
| 2026-02-16T14:36 | 57.34999 | 20.48312 | 0.110 | 118.5 |
| 2026-02-16T14:46 | 57.34979 | 20.48401 | 0.187 | 112.3 |
| 2026-02-16T14:56 | 57.33119 | 20.47793 | 6.811 | 190.0 |
| 2026-02-16T15:06 | 57.29903 | 20.47130 | 11.671 | 186.4 |
| 2026-02-16T15:16 | 57.26696 | 20.46393 | 11.651 | 187.1 |
| 2026-02-16T15:26 | 57.23551 | 20.44662 | 11.835 | 196.6 |
| 2026-02-16T15:36 | 57.20422 | 20.43008 | 11.740 | 196.0 |
| 2026-02-16T15:46 | 57.17350 | 20.41252 | 11.599 | 197.2 |
| 2026-02-16T15:56 | 57.14303 | 20.39478 | 11.522 | 197.6 |
| 2026-02-16T16:06 | 57.11269 | 20.37676 | 11.498 | 197.9 |
| 2026-02-16T16:16 | 57.08240 | 20.35940 | 11.443 | 197.3 |
| 2026-02-16T16:26 | 57.05214 | 20.34135 | 11.471 | 198.0 |
| 2026-02-16T16:36 | 57.02224 | 20.32269 | 11.391 | 198.8 |
| 2026-02-16T16:46 | 56.99271 | 20.30341 | 11.301 | 199.6 |
| 2026-02-16T16:56 | 56.96307 | 20.28514 | 11.279 | 198.6 |
| 2026-02-16T17:06 | 56.93377 | 20.26767 | 11.110 | 198.1 |
| 2026-02-16T17:16 | 56.90405 | 20.25248 | 11.126 | 195.6 |
| 2026-02-16T17:26 | 56.87458 | 20.23915 | 10.950 | 193.9 |
| 2026-02-16T17:36 | 56.84500 | 20.22608 | 10.973 | 193.6 |
| 2026-02-16T17:46 | 56.81541 | 20.21214 | 11.018 | 194.5 |
| 2026-02-16T17:56 | 56.78605 | 20.19642 | 11.032 | 196.4 |
| 2026-02-16T18:06 | 56.75701 | 20.18022 | 10.952 | 197.0 |
| 2026-02-16T18:16 | 56.72797 | 20.16424 | 10.939 | 196.8 |
| 2026-02-16T18:26 | 56.69931 | 20.14822 | 10.812 | 197.1 |
| 2026-02-16T18:36 | 56.67064 | 20.13391 | 10.720 | 195.4 |
| 2026-02-16T18:46 | 56.64206 | 20.11969 | 10.684 | 195.3 |
| 2026-02-16T18:56 | 56.61360 | 20.10566 | 10.634 | 195.2 |
| 2026-02-16T19:06 | 56.58506 | 20.09155 | 10.668 | 195.3 |
| 2026-02-16T19:16 | 56.55643 | 20.07696 | 10.724 | 195.7 |
| 2026-02-16T19:26 | 56.52757 | 20.06152 | 10.851 | 196.5 |
| 2026-02-16T19:36 | 56.49884 | 20.04646 | 10.785 | 196.2 |
| 2026-02-16T19:46 | 56.46980 | 20.03214 | 10.854 | 195.3 |
| 2026-02-16T19:56 | 56.44040 | 20.01833 | 10.952 | 194.6 |
| 2026-02-16T20:06 | 56.41079 | 20.00444 | 11.029 | 194.6 |
| 2026-02-16T20:16 | 56.38102 | 19.98983 | 11.124 | 195.2 |
| 2026-02-16T20:26 | 56.35128 | 19.97434 | 11.163 | 196.1 |
| 2026-02-16T20:36 | 56.34197 | 19.94732 | 6.365 | 238.2 |
| 2026-02-16T20:46 | 56.34101 | 19.90230 | 9.023 | 267.8 |
| 2026-02-16T20:56 | 56.33687 | 19.84530 | 11.511 | 262.6 |
| 2026-02-16T21:06 | 56.32772 | 19.79113 | 11.341 | 253.1 |
| 2026-02-16T21:16 | 56.30985 | 19.74704 | 10.933 | 233.9 |
| 2026-02-16T21:26 | 56.29285 | 19.70184 | 10.940 | 235.9 |
| 2026-02-16T21:36 | 56.27669 | 19.65619 | 10.851 | 237.6 |
| 2026-02-16T21:46 | 56.26041 | 19.60994 | 10.978 | 237.7 |
| 2026-02-16T21:56 | 56.24391 | 19.56429 | 10.924 | 237.0 |
| 2026-02-16T22:06 | 56.22721 | 19.51941 | 10.839 | 236.3 |
| 2026-02-16T22:16 | 56.21225 | 19.47271 | 10.820 | 240.1 |
| 2026-02-16T22:26 | 56.19928 | 19.42314 | 11.005 | 244.9 |
| 2026-02-16T22:36 | 56.18620 | 19.37347 | 11.042 | 244.8 |
| 2026-02-16T22:46 | 56.17343 | 19.32443 | 10.883 | 245.0 |
| 2026-02-16T22:56 | 56.16134 | 19.27563 | 10.742 | 246.1 |
| 2026-02-16T23:06 | 56.14898 | 19.22696 | 10.760 | 245.6 |
| 2026-02-16T23:16 | 56.13576 | 19.17858 | 10.841 | 243.9 |
| 2026-02-16T23:26 | 56.11945 | 19.13595 | 10.406 | 235.6 |
| 2026-02-16T23:36 | 56.10815 | 19.08692 | 10.683 | 247.6 |
| 2026-02-16T23:46 | 56.09823 | 19.03635 | 10.798 | 250.7 |
| 2026-02-16T23:56 | 56.08822 | 18.98634 | 10.706 | 250.3 |
| 2026-02-17T00:06 | 56.07831 | 18.93553 | 10.848 | 250.8 |
| 2026-02-17T00:16 | 56.06854 | 18.88516 | 10.750 | 250.9 |
| 2026-02-17T00:26 | 56.05875 | 18.83454 | 10.803 | 251.0 |
| 2026-02-17T00:36 | 56.04880 | 18.78360 | 10.885 | 250.8 |
| 2026-02-17T00:46 | 56.03886 | 18.73281 | 10.858 | 250.8 |
| 2026-02-17T00:56 | 56.02920 | 18.68210 | 10.812 | 251.2 |
| 2026-02-17T01:06 | 56.01946 | 18.63190 | 10.726 | 250.9 |
| 2026-02-17T01:16 | 56.00963 | 18.58147 | 10.785 | 250.8 |
| 2026-02-17T01:26 | 55.99972 | 18.53123 | 10.757 | 250.6 |
| 2026-02-17T01:36 | 55.98953 | 18.48052 | 10.885 | 250.3 |
| 2026-02-17T01:46 | 55.97947 | 18.43036 | 10.767 | 250.3 |
| 2026-02-17T01:56 | 55.96906 | 18.38089 | 10.683 | 249.5 |
| 2026-02-17T02:06 | 55.95891 | 18.33150 | 10.637 | 249.9 |
| 2026-02-17T02:16 | 55.94432 | 18.28605 | 10.592 | 240.2 |
| 2026-02-17T02:26 | 55.92737 | 18.24336 | 10.583 | 234.7 |
| 2026-02-17T02:36 | 55.91354 | 18.19681 | 10.659 | 242.2 |
| 2026-02-17T02:46 | 55.90503 | 18.14608 | 10.721 | 253.4 |
| 2026-02-17T02:56 | 55.89689 | 18.09469 | 10.815 | 254.3 |
| 2026-02-17T03:06 | 55.88739 | 18.04386 | 10.853 | 251.6 |
| 2026-02-17T03:16 | 55.87757 | 17.99380 | 10.744 | 250.8 |
| 2026-02-17T03:26 | 55.86823 | 17.94401 | 10.639 | 251.6 |
| 2026-02-17T03:36 | 55.85898 | 17.89440 | 10.597 | 251.7 |
| 2026-02-17T03:46 | 55.84980 | 17.84442 | 10.661 | 251.9 |
| 2026-02-17T03:56 | 55.84014 | 17.79484 | 10.642 | 250.9 |
| 2026-02-17T04:06 | 55.83066 | 17.74485 | 10.703 | 251.4 |
| 2026-02-17T04:16 | 55.82109 | 17.69491 | 10.705 | 251.2 |
| 2026-02-17T04:26 | 55.81175 | 17.64493 | 10.691 | 251.7 |
| 2026-02-17T04:36 | 55.80229 | 17.59458 | 10.775 | 251.6 |
| 2026-02-17T04:46 | 55.79301 | 17.54448 | 10.712 | 251.8 |
| 2026-02-17T04:56 | 55.78333 | 17.49444 | 10.746 | 251.1 |
| 2026-02-17T05:06 | 55.77353 | 17.44490 | 10.668 | 250.7 |
| 2026-02-17T05:16 | 55.76384 | 17.39472 | 10.780 | 251.1 |
| 2026-02-17T05:26 | 55.75398 | 17.34433 | 10.843 | 250.9 |
| 2026-02-17T05:36 | 55.74426 | 17.29445 | 10.730 | 251.0 |
| 2026-02-17T05:46 | 55.73472 | 17.24404 | 10.814 | 251.5 |
| 2026-02-17T05:56 | 55.72539 | 17.19411 | 10.701 | 251.7 |
| 2026-02-17T06:06 | 55.71608 | 17.14397 | 10.740 | 251.8 |
| 2026-02-17T06:16 | 55.70709 | 17.09339 | 10.792 | 252.6 |
| 2026-02-17T06:26 | 55.69826 | 17.04386 | 10.573 | 252.5 |
| 2026-02-17T06:36 | 55.68917 | 16.99458 | 10.557 | 251.9 |
| 2026-02-17T06:46 | 55.68012 | 16.94489 | 10.633 | 252.2 |
| 2026-02-17T06:56 | 55.67109 | 16.89506 | 10.660 | 252.2 |
| 2026-02-17T07:06 | 55.66224 | 16.84504 | 10.680 | 252.7 |
| 2026-02-17T07:16 | 55.65327 | 16.79434 | 10.828 | 252.6 |
| 2026-02-17T07:26 | 55.64463 | 16.74370 | 10.782 | 253.2 |
| 2026-02-17T07:36 | 55.63577 | 16.69318 | 10.783 | 252.8 |
| 2026-02-17T07:46 | 55.62567 | 16.64401 | 10.670 | 250.1 |
| 2026-02-17T07:56 | 55.61564 | 16.59470 | 10.691 | 250.2 |
| 2026-02-17T08:06 | 55.60568 | 16.54564 | 10.635 | 250.3 |
| 2026-02-17T08:16 | 55.59562 | 16.49622 | 10.719 | 250.2 |
| 2026-02-17T08:26 | 55.58474 | 16.44727 | 10.736 | 248.6 |
| 2026-02-17T08:36 | 55.57383 | 16.39835 | 10.736 | 248.5 |
| 2026-02-17T08:46 | 55.56303 | 16.34953 | 10.706 | 248.7 |
| 2026-02-17T08:56 | 55.55225 | 16.30009 | 10.824 | 249.0 |
| 2026-02-17T09:06 | 55.54150 | 16.25105 | 10.746 | 248.9 |
| 2026-02-17T09:16 | 55.53129 | 16.20160 | 10.757 | 250.0 |
| 2026-02-17T09:26 | 55.52208 | 16.15153 | 10.764 | 252.1 |
| 2026-02-17T09:36 | 55.51281 | 16.10076 | 10.910 | 252.2 |
| 2026-02-17T09:46 | 55.50309 | 16.04944 | 11.068 | 251.6 |
| 2026-02-17T09:56 | 55.49333 | 15.99789 | 11.120 | 251.6 |
| 2026-02-17T10:06 | 55.48365 | 15.94700 | 10.986 | 251.5 |
| 2026-02-17T10:16 | 55.47369 | 15.89513 | 11.210 | 251.3 |
| 2026-02-17T10:26 | 55.46392 | 15.84319 | 11.204 | 251.7 |
| 2026-02-17T10:36 | 55.45444 | 15.79159 | 11.108 | 252.1 |
| 2026-02-17T10:46 | 55.44533 | 15.74001 | 11.067 | 252.8 |
| 2026-02-17T10:56 | 55.43624 | 15.68816 | 11.118 | 252.9 |
| 2026-02-17T11:06 | 55.42700 | 15.63692 | 11.019 | 252.4 |
| 2026-02-17T11:16 | 55.41958 | 15.58473 | 11.031 | 256.0 |
| 2026-02-17T11:26 | 55.41416 | 15.53249 | 10.888 | 259.7 |
| 2026-02-17T11:36 | 55.40843 | 15.48049 | 10.862 | 259.1 |
| 2026-02-17T11:46 | 55.40245 | 15.42876 | 10.829 | 258.5 |
| 2026-02-17T11:56 | 55.39672 | 15.37735 | 10.746 | 258.9 |
| 2026-02-17T12:06 | 55.39203 | 15.32583 | 10.705 | 260.9 |
| 2026-02-17T12:16 | 55.38736 | 15.27492 | 10.582 | 260.9 |
| 2026-02-17T12:26 | 55.38300 | 15.22634 | 10.092 | 261.0 |
| 2026-02-17T12:36 | 55.37604 | 15.17864 | 10.108 | 255.7 |
| 2026-02-17T12:46 | 55.36609 | 15.13049 | 10.515 | 250.1 |
| 2026-02-17T12:56 | 55.34729 | 15.09532 | 9.904 | 226.8 |
| 2026-02-17T13:06 | 55.32136 | 15.07170 | 10.531 | 207.5 |
| 2026-02-17T13:16 | 55.29931 | 15.03889 | 10.427 | 220.3 |
| 2026-02-17T13:26 | 55.28179 | 15.00075 | 10.071 | 231.2 |
| 2026-02-17T13:36 | 55.27977 | 14.97592 | 5.161 | 261.9 |
| 2026-02-17T13:46 | 55.28701 | 14.95817 | 4.488 | 305.5 |
| 2026-02-17T13:56 | 55.28791 | 14.96238 | 0.925 | 69.4 |
| 2026-02-17T14:06 | 55.28766 | 14.96385 | 0.316 | 106.6 |
| 2026-02-17T14:16 | 55.28670 | 14.96621 | 0.596 | 125.7 |
| 2026-02-17T14:26 | 55.28324 | 14.97051 | 1.529 | 144.6 |
| 2026-02-17T14:36 | 55.27975 | 14.97425 | 1.474 | 148.4 |
| 2026-02-17T14:46 | 55.27613 | 14.97821 | 1.539 | 148.1 |
| 2026-02-17T14:56 | 55.27290 | 14.98229 | 1.434 | 144.1 |
| 2026-02-17T15:06 | 55.27000 | 14.98686 | 1.409 | 138.1 |
| 2026-02-17T15:16 | 55.26698 | 14.99137 | 1.429 | 139.5 |
| 2026-02-17T15:26 | 55.26369 | 14.99610 | 1.535 | 140.6 |
| 2026-02-17T15:36 | 55.26043 | 15.00061 | 1.495 | 141.6 |
| 2026-02-17T15:46 | 55.25720 | 15.00525 | 1.508 | 140.7 |
| 2026-02-17T15:56 | 55.25399 | 15.00947 | 1.448 | 143.1 |
| 2026-02-17T16:06 | 55.25083 | 15.01354 | 1.411 | 143.6 |
| 2026-02-17T16:16 | 55.24820 | 15.01794 | 1.312 | 136.2 |
| 2026-02-17T16:26 | 55.24565 | 15.02297 | 1.385 | 131.7 |
| 2026-02-17T16:36 | 55.24438 | 15.02394 | 0.498 | 156.3 |
| 2026-02-17T16:46 | 55.24321 | 15.02436 | 0.432 | 168.4 |
| 2026-02-17T16:56 | 55.24200 | 15.02576 | 0.523 | 146.7 |
| 2026-02-17T17:06 | 55.24066 | 15.02773 | 0.632 | 139.9 |
| 2026-02-17T17:16 | 55.23944 | 15.02922 | 0.534 | 145.0 |
| 2026-02-17T17:26 | 55.23787 | 15.02986 | 0.583 | 166.9 |
| 2026-02-17T17:36 | 55.23662 | 15.02776 | 0.624 | 223.9 |
| 2026-02-17T17:46 | 55.23548 | 15.02559 | 0.608 | 227.4 |
| 2026-02-17T17:56 | 55.23426 | 15.02358 | 0.602 | 223.3 |
| 2026-02-17T18:06 | 55.23279 | 15.02389 | 0.533 | 173.2 |
| 2026-02-17T18:16 | 55.23953 | 15.02487 | 2.438 | 4.8 |
| 2026-02-17T18:26 | 55.24539 | 15.02810 | 2.213 | 17.5 |
| 2026-02-17T18:36 | 55.24932 | 15.03208 | 1.639 | 30.0 |
| 2026-02-17T18:46 | 55.25246 | 15.03463 | 1.246 | 24.9 |
| 2026-02-17T18:56 | 55.25559 | 15.03748 | 1.273 | 27.4 |
| 2026-02-17T19:06 | 55.25786 | 15.03763 | 0.816 | 2.2 |
| 2026-02-17T19:16 | 55.25950 | 15.03649 | 0.635 | 338.3 |
| 2026-02-17T19:26 | 55.26043 | 15.03725 | 0.372 | 24.7 |
| 2026-02-17T19:36 | 55.26047 | 15.03665 | 0.124 | 275.5 |
| 2026-02-17T19:46 | 55.26155 | 15.03767 | 0.443 | 28.3 |
| 2026-02-17T19:56 | 55.26241 | 15.03876 | 0.383 | 36.0 |
| 2026-02-17T20:06 | 55.26295 | 15.03881 | 0.194 | 3.0 |
| 2026-02-17T20:16 | 55.26374 | 15.03862 | 0.290 | 352.1 |
| 2026-02-17T20:26 | 55.26461 | 15.03983 | 0.399 | 38.8 |
| 2026-02-17T20:36 | 55.26575 | 15.04326 | 0.818 | 59.7 |
| 2026-02-17T20:46 | 55.26597 | 15.04411 | 0.191 | 65.2 |
| 2026-02-17T20:56 | 55.26644 | 15.04616 | 0.454 | 68.4 |
| 2026-02-17T21:06 | 55.26630 | 15.04648 | 0.082 | 126.8 |
| 2026-02-17T21:16 | 55.26574 | 15.04525 | 0.322 | 231.5 |
| 2026-02-17T21:26 | 55.26478 | 15.04364 | 0.478 | 223.8 |
| 2026-02-17T21:36 | 55.26360 | 15.04255 | 0.482 | 207.8 |
| 2026-02-17T21:46 | 55.26365 | 15.04365 | 0.227 | 85.7 |
| 2026-02-17T21:56 | 55.26391 | 15.04278 | 0.204 | 298.2 |
| 2026-02-17T22:06 | 55.26398 | 15.04316 | 0.082 | 74.4 |
| 2026-02-17T22:16 | 55.26373 | 15.04238 | 0.184 | 241.4 |
| 2026-02-17T22:26 | 55.26397 | 15.04302 | 0.159 | 57.0 |
| 2026-02-17T22:36 | 55.26427 | 15.04424 | 0.273 | 66.3 |
| 2026-02-17T22:46 | 55.26389 | 15.04353 | 0.201 | 226.4 |
| 2026-02-17T22:56 | 55.26381 | 15.04328 | 0.057 | 241.1 |
| 2026-02-17T23:06 | 55.26334 | 15.04253 | 0.232 | 222.2 |
| 2026-02-17T23:16 | 55.26293 | 15.04136 | 0.282 | 238.5 |
| 2026-02-17T23:26 | 55.26335 | 15.04249 | 0.280 | 56.6 |
| 2026-02-17T23:36 | 55.26368 | 15.04387 | 0.307 | 67.3 |
| 2026-02-17T23:46 | 55.26394 | 15.04585 | 0.418 | 77.1 |
| 2026-02-17T23:56 | 55.26363 | 15.04630 | 0.145 | 140.4 |
| 2026-02-18T00:06 | 55.26346 | 15.04750 | 0.255 | 103.8 |
| 2026-02-18T00:16 | 55.26388 | 15.04879 | 0.306 | 60.5 |
| 2026-02-18T00:26 | 55.26401 | 15.05012 | 0.277 | 80.0 |
| 2026-02-18T00:36 | 55.26367 | 15.05169 | 0.347 | 110.8 |
| 2026-02-18T00:46 | 55.26289 | 15.05238 | 0.316 | 153.4 |
| 2026-02-18T00:56 | 55.26343 | 15.05483 | 0.540 | 68.8 |
| 2026-02-18T01:06 | 55.26427 | 15.05827 | 0.771 | 66.9 |
| 2026-02-18T01:16 | 55.26481 | 15.06202 | 0.795 | 75.8 |
| 2026-02-18T01:26 | 55.26526 | 15.06546 | 0.728 | 77.1 |
| 2026-02-18T01:36 | 55.26553 | 15.06845 | 0.624 | 80.9 |
| 2026-02-18T01:46 | 55.26581 | 15.07131 | 0.596 | 80.5 |
| 2026-02-18T01:56 | 55.26620 | 15.07426 | 0.623 | 76.9 |
| 2026-02-18T02:06 | 55.26630 | 15.07800 | 0.771 | 87.1 |
| 2026-02-18T02:16 | 55.26701 | 15.08025 | 0.529 | 61.2 |
| 2026-02-18T02:26 | 55.26846 | 15.08244 | 0.690 | 40.8 |
| 2026-02-18T02:36 | 55.26879 | 15.08245 | 0.119 | 1.7 |
| 2026-02-18T02:46 | 55.26780 | 15.08765 | 1.127 | 108.4 |
| 2026-02-18T02:56 | 55.26757 | 15.09537 | 1.591 | 93.0 |
| 2026-02-18T03:06 | 55.26711 | 15.10337 | 1.656 | 95.7 |
| 2026-02-18T03:16 | 55.26696 | 15.11210 | 1.797 | 91.8 |
| 2026-02-18T03:26 | 55.26652 | 15.12017 | 1.670 | 95.4 |
| 2026-02-18T03:36 | 55.26547 | 15.12730 | 1.516 | 104.5 |
| 2026-02-18T03:46 | 55.26327 | 15.13206 | 1.261 | 129.0 |
| 2026-02-18T03:56 | 55.26052 | 15.13603 | 1.283 | 140.4 |
| 2026-02-18T04:06 | 55.25797 | 15.14020 | 1.260 | 137.0 |
| 2026-02-18T04:16 | 55.25520 | 15.14347 | 1.203 | 146.0 |
| 2026-02-18T04:26 | 55.25372 | 15.14924 | 1.302 | 114.2 |
| 2026-02-18T04:36 | 55.25222 | 15.15517 | 1.336 | 113.8 |
| 2026-02-18T04:46 | 55.25082 | 15.16154 | 1.406 | 111.1 |
| 2026-02-18T04:56 | 55.24959 | 15.16854 | 1.507 | 107.1 |
| 2026-02-18T05:06 | 55.24819 | 15.17533 | 1.487 | 109.8 |
| 2026-02-18T05:16 | 55.24709 | 15.18198 | 1.427 | 106.1 |
| 2026-02-18T05:26 | 55.24582 | 15.18882 | 1.480 | 108.0 |
| 2026-02-18T05:36 | 55.24433 | 15.19539 | 1.457 | 111.7 |
| 2026-02-18T05:46 | 55.24289 | 15.20209 | 1.473 | 110.5 |
| 2026-02-18T05:56 | 55.24100 | 15.20845 | 1.476 | 117.5 |
| 2026-02-18T06:06 | 55.24111 | 15.21276 | 0.890 | 87.4 |
| 2026-02-18T06:16 | 55.24166 | 15.21652 | 0.798 | 75.6 |
| 2026-02-18T06:26 | 55.24185 | 15.22007 | 0.735 | 84.7 |
| 2026-02-18T06:36 | 55.24225 | 15.22328 | 0.677 | 77.7 |
| 2026-02-18T06:46 | 55.24266 | 15.22651 | 0.680 | 77.5 |
| 2026-02-18T06:56 | 55.24274 | 15.23058 | 0.839 | 88.1 |
| 2026-02-18T07:06 | 55.24199 | 15.23615 | 1.179 | 103.2 |
| 2026-02-18T07:16 | 55.24083 | 15.24002 | 0.900 | 117.8 |
| 2026-02-18T07:26 | 55.24090 | 15.24005 | 0.026 | 14.4 |
| 2026-02-18T07:36 | 55.24087 | 15.23994 | 0.023 | 248.2 |
| 2026-02-18T07:46 | 55.24048 | 15.23950 | 0.169 | 212.4 |
| 2026-02-18T07:56 | 55.24050 | 15.23912 | 0.078 | 275.5 |
| 2026-02-18T08:06 | 55.24082 | 15.23853 | 0.170 | 313.8 |
| 2026-02-18T08:16 | 55.24081 | 15.23802 | 0.104 | 267.0 |
| 2026-02-18T08:26 | 55.24089 | 15.23726 | 0.160 | 280.5 |
| 2026-02-18T08:36 | 55.24124 | 15.23653 | 0.196 | 310.3 |
| 2026-02-18T08:46 | 55.24203 | 15.23558 | 0.345 | 325.4 |
| 2026-02-18T08:56 | 55.24230 | 15.23447 | 0.248 | 292.9 |
| 2026-02-18T09:06 | 55.24502 | 15.22542 | 2.107 | 297.8 |
| 2026-02-18T09:16 | 55.25567 | 15.18119 | 9.882 | 292.9 |
| 2026-02-18T09:26 | 55.26694 | 15.13677 | 10.007 | 294.0 |
| 2026-02-18T09:36 | 55.27874 | 15.09255 | 10.047 | 295.1 |
| 2026-02-18T09:46 | 55.29070 | 15.04818 | 10.095 | 295.3 |
| 2026-02-18T09:56 | 55.30247 | 15.00380 | 10.065 | 294.9 |
| 2026-02-18T10:06 | 55.31446 | 14.95818 | 10.330 | 294.8 |
| 2026-02-18T10:16 | 55.32794 | 14.91362 | 10.367 | 298.0 |
| 2026-02-18T10:26 | 55.34138 | 14.86899 | 10.371 | 297.9 |
| 2026-02-18T10:36 | 55.35451 | 14.82275 | 10.614 | 296.5 |
| 2026-02-18T10:46 | 55.37088 | 14.77789 | 10.938 | 302.7 |
| 2026-02-18T10:56 | 55.38926 | 14.73643 | 10.786 | 307.9 |
| 2026-02-18T11:06 | 55.40630 | 14.69387 | 10.676 | 305.1 |
| 2026-02-18T11:16 | 55.42170 | 14.64803 | 10.916 | 300.6 |
| 2026-02-18T11:26 | 55.43287 | 14.59829 | 10.964 | 291.6 |
| 2026-02-18T11:36 | 55.42246 | 14.54774 | 11.020 | 250.1 |
| 2026-02-18T11:46 | 55.39906 | 14.51048 | 11.384 | 222.2 |
| 2026-02-18T11:56 | 55.37488 | 14.47616 | 11.206 | 218.9 |
| 2026-02-18T12:06 | 55.35065 | 14.44322 | 11.045 | 217.8 |
| 2026-02-18T12:16 | 55.32653 | 14.40966 | 11.099 | 218.4 |
| 2026-02-18T12:26 | 55.30250 | 14.37539 | 11.166 | 219.1 |
| 2026-02-18T12:36 | 55.27774 | 14.33966 | 11.564 | 219.5 |
| 2026-02-18T12:46 | 55.25249 | 14.30365 | 11.738 | 219.2 |
| 2026-02-18T12:56 | 55.22680 | 14.27000 | 11.567 | 216.8 |
| 2026-02-18T13:06 | 55.20199 | 14.23645 | 11.304 | 217.7 |
| 2026-02-18T13:16 | 55.17786 | 14.20191 | 11.245 | 219.3 |
| 2026-02-18T13:26 | 55.15381 | 14.16920 | 10.987 | 217.9 |
| 2026-02-18T13:36 | 55.12909 | 14.13805 | 10.989 | 215.8 |
| 2026-02-18T13:46 | 55.10511 | 14.10512 | 10.998 | 218.2 |
| 2026-02-18T13:56 | 55.08200 | 14.07098 | 10.921 | 220.3 |
| 2026-02-18T14:06 | 55.07048 | 14.02402 | 10.561 | 246.9 |
| 2026-02-18T14:16 | 55.06018 | 13.97662 | 10.486 | 249.3 |
| 2026-02-18T14:26 | 55.05023 | 13.92903 | 10.479 | 250.0 |
| 2026-02-18T14:36 | 55.03990 | 13.88183 | 10.455 | 249.2 |
| 2026-02-18T14:46 | 55.03029 | 13.83396 | 10.498 | 250.8 |
| 2026-02-18T14:56 | 55.02124 | 13.78568 | 10.518 | 251.9 |
| 2026-02-18T15:06 | 55.01263 | 13.73779 | 10.394 | 252.6 |
| 2026-02-18T15:16 | 55.00297 | 13.69003 | 10.489 | 250.6 |
| 2026-02-18T15:26 | 54.99367 | 13.64188 | 10.526 | 251.4 |
| 2026-02-18T15:36 | 54.98461 | 13.59346 | 10.554 | 252.0 |
| 2026-02-18T15:46 | 54.97487 | 13.54546 | 10.552 | 250.6 |
| 2026-02-18T15:56 | 54.96467 | 13.49957 | 10.201 | 248.9 |
| 2026-02-18T16:06 | 54.95424 | 13.45454 | 10.069 | 248.1 |
| 2026-02-18T16:16 | 54.94338 | 13.41077 | 9.889 | 246.7 |
| 2026-02-18T16:26 | 54.93233 | 13.36718 | 9.884 | 246.2 |
| 2026-02-18T16:36 | 54.92127 | 13.32323 | 9.957 | 246.4 |
| 2026-02-18T16:46 | 54.91015 | 13.27876 | 10.067 | 246.6 |
| 2026-02-18T16:56 | 54.89941 | 13.23343 | 10.179 | 247.7 |
| 2026-02-18T17:06 | 54.88857 | 13.18752 | 10.308 | 247.7 |
| 2026-02-18T17:16 | 54.87767 | 13.14178 | 10.286 | 247.6 |
| 2026-02-18T17:26 | 54.86733 | 13.09612 | 10.195 | 248.6 |
| 2026-02-18T17:36 | 54.85670 | 13.05036 | 10.259 | 248.1 |
| 2026-02-18T17:46 | 54.84616 | 13.00291 | 10.572 | 249.0 |
| 2026-02-18T17:56 | 54.83706 | 12.95481 | 10.532 | 251.9 |
| 2026-02-18T18:06 | 54.82802 | 12.90693 | 10.482 | 251.9 |
| 2026-02-18T18:16 | 54.81941 | 12.85927 | 10.391 | 252.7 |
| 2026-02-18T18:26 | 54.81110 | 12.81147 | 10.391 | 253.3 |
| 2026-02-18T18:36 | 54.80272 | 12.76311 | 10.513 | 253.3 |
| 2026-02-18T18:46 | 54.79439 | 12.71454 | 10.550 | 253.5 |
| 2026-02-18T18:56 | 54.77946 | 12.67102 | 10.545 | 239.3 |
| 2026-02-18T19:06 | 54.76342 | 12.62883 | 10.522 | 236.7 |
| 2026-02-18T19:16 | 54.74714 | 12.58554 | 10.764 | 237.0 |
| 2026-02-18T19:26 | 54.73133 | 12.54118 | 10.867 | 238.4 |
| 2026-02-18T19:36 | 54.71525 | 12.49736 | 10.824 | 237.7 |
| 2026-02-18T19:46 | 54.69854 | 12.45513 | 10.676 | 235.7 |
| 2026-02-18T19:56 | 54.68183 | 12.41231 | 10.781 | 236.1 |
| 2026-02-18T20:06 | 54.66678 | 12.36812 | 10.707 | 239.6 |
| 2026-02-18T20:16 | 54.65176 | 12.32490 | 10.529 | 239.1 |
| 2026-02-18T20:26 | 54.63678 | 12.28152 | 10.554 | 239.2 |
| 2026-02-18T20:36 | 54.61744 | 12.24429 | 10.452 | 228.2 |
| 2026-02-18T20:46 | 54.58895 | 12.22447 | 11.073 | 202.0 |
| 2026-02-18T20:56 | 54.56093 | 12.20605 | 10.811 | 200.9 |
| 2026-02-18T21:06 | 54.53262 | 12.18878 | 10.828 | 199.5 |
| 2026-02-18T21:16 | 54.50330 | 12.17746 | 10.829 | 192.7 |
| 2026-02-18T21:26 | 54.47253 | 12.16942 | 11.220 | 188.7 |
| 2026-02-18T21:36 | 54.45560 | 12.13216 | 9.921 | 232.1 |
| 2026-02-18T21:46 | 54.44747 | 12.08552 | 10.225 | 253.4 |
| 2026-02-18T21:56 | 54.44742 | 12.03599 | 10.404 | 269.9 |
| 2026-02-18T22:06 | 54.44991 | 11.99245 | 9.189 | 275.6 |
| 2026-02-18T22:16 | 54.45135 | 11.94215 | 10.577 | 272.8 |
| 2026-02-18T22:26 | 54.45102 | 11.89183 | 10.569 | 269.4 |
| 2026-02-18T22:36 | 54.45048 | 11.84171 | 10.528 | 269.0 |
| 2026-02-18T22:46 | 54.44982 | 11.79112 | 10.629 | 268.8 |
| 2026-02-18T22:56 | 54.45297 | 11.74165 | 10.451 | 276.2 |
| 2026-02-18T23:06 | 54.46627 | 11.69641 | 10.642 | 296.8 |
| 2026-02-18T23:16 | 54.47883 | 11.65087 | 10.576 | 295.4 |
| 2026-02-18T23:26 | 54.49075 | 11.60530 | 10.485 | 294.2 |
| 2026-02-18T23:36 | 54.50269 | 11.55929 | 10.569 | 294.0 |
| 2026-02-18T23:46 | 54.51484 | 11.51277 | 10.695 | 294.2 |
| 2026-02-18T23:56 | 54.52719 | 11.46564 | 10.838 | 294.3 |
| 2026-02-19T00:06 | 54.53952 | 11.41882 | 10.772 | 294.4 |
| 2026-02-19T00:16 | 54.55201 | 11.37213 | 10.770 | 294.7 |
| 2026-02-19T00:26 | 54.56380 | 11.32653 | 10.455 | 294.0 |
| 2026-02-19T00:36 | 54.57773 | 11.28355 | 10.307 | 299.2 |
| 2026-02-19T00:46 | 54.58930 | 11.23777 | 10.451 | 293.5 |
| 2026-02-19T00:56 | 54.59912 | 11.19059 | 10.491 | 289.7 |
| 2026-02-19T01:06 | 54.60132 | 11.14048 | 10.517 | 274.3 |
| 2026-02-19T01:16 | 54.59952 | 11.09204 | 10.156 | 266.4 |
| 2026-02-19T01:26 | 54.59716 | 11.04444 | 9.998 | 265.1 |
| 2026-02-19T01:36 | 54.59458 | 10.99621 | 10.137 | 264.8 |
| 2026-02-19T01:46 | 54.59124 | 10.94791 | 10.181 | 263.2 |
| 2026-02-19T01:56 | 54.58793 | 10.89949 | 10.206 | 263.3 |
| 2026-02-19T02:06 | 54.58646 | 10.84853 | 10.681 | 267.2 |
| 2026-02-19T02:16 | 54.58694 | 10.79735 | 10.715 | 271.0 |
| 2026-02-19T02:26 | 54.58584 | 10.74683 | 10.583 | 267.9 |
| 2026-02-19T02:36 | 54.58364 | 10.69611 | 10.649 | 265.7 |
| 2026-02-19T02:46 | 54.58206 | 10.65840 | 7.915 | 265.9 |
| 2026-02-19T02:56 | 54.58065 | 10.62485 | 7.042 | 265.9 |
| 2026-02-19T03:06 | 54.57672 | 10.59231 | 6.959 | 258.3 |
| 2026-02-19T03:16 | 54.56974 | 10.56086 | 7.051 | 249.1 |
| 2026-02-19T03:26 | 54.56267 | 10.52926 | 7.092 | 248.9 |
| 2026-02-19T03:36 | 54.55518 | 10.49805 | 7.074 | 247.6 |
| 2026-02-19T03:46 | 54.54741 | 10.46745 | 6.995 | 246.4 |
| 2026-02-19T03:56 | 54.53938 | 10.43692 | 7.022 | 245.7 |
| 2026-02-19T04:06 | 54.53161 | 10.40622 | 7.018 | 246.5 |
| 2026-02-19T04:16 | 54.52410 | 10.37654 | 6.785 | 246.5 |
| 2026-02-19T04:26 | 54.51591 | 10.34658 | 6.942 | 244.8 |
| 2026-02-19T04:36 | 54.50885 | 10.31546 | 7.003 | 248.7 |
| 2026-02-19T04:46 | 54.49982 | 10.28600 | 6.986 | 242.2 |
| 2026-02-19T04:56 | 54.48783 | 10.26357 | 6.388 | 227.4 |
| 2026-02-19T05:06 | 54.47072 | 10.25639 | 6.348 | 193.7 |
| 2026-02-19T05:16 | 54.45482 | 10.24079 | 6.603 | 209.7 |
| 2026-02-19T05:26 | 54.43944 | 10.22554 | 6.403 | 210.0 |
| 2026-02-19T05:36 | 54.42421 | 10.21124 | 6.255 | 208.7 |
| 2026-02-19T05:46 | 54.40878 | 10.20336 | 5.804 | 196.6 |
| 2026-02-19T05:56 | 54.39311 | 10.19706 | 5.803 | 193.2 |
| 2026-02-19T06:06 | 54.37551 | 10.18008 | 7.281 | 209.4 |
| 2026-02-19T06:16 | 54.35757 | 10.16258 | 7.439 | 209.7 |
| 2026-02-19T06:26 | 54.33887 | 10.16192 | 6.741 | 181.2 |
| 2026-02-19T06:36 | 54.33015 | 10.17420 | 4.070 | 140.6 |
| 2026-02-19T06:46 | 54.32853 | 10.17936 | 1.234 | 118.2 |
| 2026-02-19T06:56 | 54.32853 | 10.17942 | 0.012 | 95.0 |
| 2026-02-19T07:06 | 54.32853 | 10.17943 | 0.003 | 116.0 |
| 2026-02-19T07:16 | 54.32852 | 10.17943 | 0.002 | 221.2 |
| 2026-02-19T07:26 | 54.32852 | 10.17944 | 0.003 | 103.7 |
| 2026-02-19T07:36 | 54.32856 | 10.17942 | 0.014 | 346.7 |
| 2026-02-19T07:46 | 54.32852 | 10.17943 | 0.014 | 174.0 |
| 2026-02-19T07:56 | 54.32852 | 10.17944 | 0.003 | 41.2 |
| 2026-02-19T08:06 | 54.32850 | 10.17945 | 0.007 | 170.1 |
| 2026-02-19T08:16 | 54.32849 | 10.17944 | 0.006 | 201.3 |
| 2026-02-19T08:26 | 54.32850 | 10.17944 | 0.005 | 17.6 |
| 2026-02-19T08:36 | 54.32849 | 10.17942 | 0.006 | 233.3 |
| 2026-02-19T08:46 | 54.32850 | 10.17945 | 0.007 | 61.1 |
| 2026-02-19T08:56 | 54.32850 | 10.17945 | 0.002 | 203.7 |
| 2026-02-19T09:06 | 54.32853 | 10.17944 | 0.011 | 347.9 |
| 2026-02-19T09:16 | 54.32852 | 10.17945 | 0.005 | 145.7 |
| 2026-02-19T09:26 | 54.32852 | 10.17946 | 0.001 | 41.2 |
| 2026-02-19T09:36 | 54.32852 | 10.17946 | 0.001 | 142.1 |
| 2026-02-19T09:46 | 54.32853 | 10.17943 | 0.008 | 304.0 |
| 2026-02-19T09:56 | 54.32853 | 10.17945 | 0.005 | 90.0 |
| 2026-02-19T10:06 | 54.32851 | 10.17946 | 0.007 | 167.2 |
| 2026-02-19T10:16 | 54.32851 | 10.17946 | 0.001 | 138.8 |
| 2026-02-19T10:26 | 54.32852 | 10.17948 | 0.006 | 49.5 |
| 2026-02-19T10:36 | 54.32852 | 10.17945 | 0.005 | 278.1 |
| 2026-02-19T10:46 | 54.32852 | 10.17945 | 0.000 | 329.7 |
| 2026-02-19T10:56 | 54.32850 | 10.17945 | 0.008 | 189.5 |
| 2026-02-19T11:06 | 54.33138 | 10.17053 | 2.146 | 298.9 |
| 2026-02-19T11:16 | 54.34296 | 10.16493 | 4.338 | 344.2 |
| 2026-02-19T11:26 | 54.37168 | 10.18067 | 10.871 | 17.8 |
| 2026-02-19T11:36 | 54.39834 | 10.20418 | 10.804 | 27.2 |
| 2026-02-19T11:46 | 54.42696 | 10.22292 | 11.043 | 20.9 |
| 2026-02-19T11:56 | 54.45445 | 10.24375 | 10.831 | 23.8 |
| 2026-02-19T12:06 | 54.48494 | 10.23016 | 11.353 | 345.4 |
| 2026-02-19T12:16 | 54.50070 | 10.18295 | 11.420 | 299.9 |
| 2026-02-19T12:26 | 54.51116 | 10.13177 | 11.377 | 289.4 |
| 2026-02-19T12:36 | 54.52107 | 10.08321 | 10.791 | 289.3 |
| 2026-02-19T12:46 | 54.52848 | 10.05119 | 7.227 | 291.7 |
| 2026-02-19T12:56 | 54.52966 | 10.04024 | 2.334 | 280.5 |
| 2026-02-19T13:06 | 54.52880 | 10.04038 | 0.313 | 174.3 |
| 2026-02-19T13:16 | 54.52898 | 10.04084 | 0.115 | 55.6 |
| 2026-02-19T13:26 | 54.52879 | 10.04104 | 0.081 | 149.1 |
| 2026-02-19T13:36 | 54.52857 | 10.04092 | 0.083 | 197.6 |
| 2026-02-19T13:46 | 54.52865 | 10.04023 | 0.147 | 281.1 |
| 2026-02-19T13:56 | 54.52874 | 10.03991 | 0.075 | 297.3 |
| 2026-02-19T14:06 | 54.52853 | 10.03926 | 0.156 | 240.6 |
| 2026-02-19T14:16 | 54.52827 | 10.03931 | 0.094 | 173.8 |
| 2026-02-19T14:26 | 54.52828 | 10.04004 | 0.154 | 88.7 |
| 2026-02-19T14:36 | 54.52803 | 10.04068 | 0.160 | 124.0 |
| 2026-02-19T14:46 | 54.52842 | 10.04059 | 0.139 | 352.6 |
| 2026-02-19T14:56 | 54.52882 | 10.04050 | 0.149 | 352.5 |
| 2026-02-19T15:06 | 54.53001 | 10.04036 | 0.428 | 356.0 |
| 2026-02-19T15:16 | 54.53021 | 10.04208 | 0.369 | 79.0 |
| 2026-02-19T15:26 | 54.52955 | 10.04201 | 0.237 | 183.7 |
| 2026-02-19T15:36 | 54.52972 | 10.04209 | 0.063 | 16.2 |
| 2026-02-19T15:46 | 54.52340 | 10.03575 | 2.638 | 210.3 |
| 2026-02-19T15:56 | 54.50646 | 9.98925 | 11.504 | 238.0 |
| 2026-02-19T16:06 | 54.48818 | 9.94256 | 11.805 | 236.1 |
| 2026-02-19T16:16 | 54.47378 | 9.89235 | 11.746 | 243.8 |
| 2026-02-19T16:26 | 54.47190 | 9.85188 | 8.522 | 265.5 |
| 2026-02-19T16:36 | 54.47421 | 9.84449 | 1.760 | 298.1 |
| 2026-02-19T16:46 | 54.47489 | 9.84058 | 0.857 | 286.6 |
| 2026-02-19T16:56 | 54.47468 | 9.84026 | 0.101 | 222.1 |
| 2026-02-19T17:06 | 54.47466 | 9.84026 | 0.007 | 163.8 |
| 2026-02-19T17:16 | 54.47465 | 9.84027 | 0.003 | 160.0 |
| 2026-02-19T17:26 | 54.47467 | 9.84027 | 0.008 | 3.2 |
| 2026-02-19T17:36 | 54.47466 | 9.84026 | 0.005 | 202.6 |
| 2026-02-19T17:46 | 54.47467 | 9.84027 | 0.003 | 42.5 |
| 2026-02-19T17:56 | 54.47467 | 9.84027 | 0.001 | 310.6 |
| 2026-02-19T18:06 | 54.47466 | 9.84027 | 0.004 | 180.0 |
| 2026-02-19T18:16 | 54.47467 | 9.84027 | 0.004 | 0.0 |
| 2026-02-19T18:26 | 54.47466 | 9.84026 | 0.004 | 212.6 |
| 2026-02-19T18:36 | 54.47466 | 9.84025 | 0.001 | 251.1 |
| 2026-02-19T18:46 | 54.47466 | 9.84027 | 0.004 | 79.8 |
| 2026-02-19T18:56 | 54.47466 | 9.84026 | 0.002 | 280.8 |
| 2026-02-19T19:06 | 54.47466 | 9.84026 | 0.001 | 188.3 |
| 2026-02-19T19:16 | 54.47467 | 9.84026 | 0.005 | 2.6 |
| 2026-02-19T19:26 | 54.47467 | 9.84025 | 0.003 | 257.9 |
| 2026-02-19T19:36 | 54.47467 | 9.84027 | 0.004 | 79.8 |
| 2026-02-19T19:46 | 54.47467 | 9.84026 | 0.003 | 238.0 |
| 2026-02-19T19:56 | 54.47467 | 9.84026 | 0.001 | 66.8 |
| 2026-02-19T20:06 | 54.47467 | 9.84026 | 0.003 | 355.2 |
| 2026-02-19T20:16 | 54.47467 | 9.84028 | 0.005 | 86.2 |
| 2026-02-19T20:26 | 54.47467 | 9.84027 | 0.002 | 252.7 |
| 2026-02-19T20:36 | 54.47466 | 9.84028 | 0.004 | 170.1 |
| 2026-02-19T20:46 | 54.47467 | 9.84027 | 0.004 | 329.8 |
| 2026-02-19T20:56 | 54.47467 | 9.84026 | 0.003 | 302.0 |
| 2026-02-19T21:06 | 54.47467 | 9.84025 | 0.003 | 198.4 |
| 2026-02-19T21:16 | 54.47467 | 9.84027 | 0.004 | 47.2 |
| 2026-02-19T21:26 | 54.47467 | 9.84026 | 0.001 | 229.3 |
| 2026-02-19T21:36 | 54.47468 | 9.84026 | 0.002 | 310.6 |
| 2026-02-19T21:46 | 54.47467 | 9.84027 | 0.004 | 143.9 |
| 2026-02-19T21:56 | 54.47466 | 9.84028 | 0.003 | 130.7 |
| 2026-02-19T22:06 | 54.47467 | 9.84027 | 0.003 | 313.6 |
| 2026-02-19T22:16 | 54.47467 | 9.84026 | 0.002 | 318.9 |
| 2026-02-19T22:26 | 54.47466 | 9.84026 | 0.005 | 186.4 |
| 2026-02-19T22:36 | 54.47466 | 9.84026 | 0.001 | 107.0 |
| 2026-02-19T22:46 | 54.47468 | 9.84026 | 0.009 | 356.0 |
| 2026-02-19T22:56 | 54.47466 | 9.84028 | 0.009 | 151.0 |
| 2026-02-19T23:06 | 54.47466 | 9.84026 | 0.004 | 290.9 |
| 2026-02-19T23:16 | 54.47466 | 9.84025 | 0.002 | 240.2 |
| 2026-02-19T23:26 | 54.47466 | 9.84027 | 0.003 | 96.1 |
| 2026-02-19T23:36 | 54.47466 | 9.84024 | 0.005 | 270.0 |
| 2026-02-19T23:46 | 54.47467 | 9.84026 | 0.006 | 35.6 |
| 2026-02-19T23:56 | 54.47467 | 9.84028 | 0.004 | 119.8 |
| 2026-02-20T00:06 | 54.47466 | 9.84025 | 0.006 | 247.6 |
| 2026-02-20T00:16 | 54.47467 | 9.84025 | 0.002 | 30.2 |
| 2026-02-20T00:26 | 54.47467 | 9.84027 | 0.003 | 97.5 |
| 2026-02-20T00:36 | 54.47466 | 9.84025 | 0.004 | 259.8 |
| 2026-02-20T00:46 | 54.47467 | 9.84026 | 0.003 | 33.6 |
| 2026-02-20T00:56 | 54.47467 | 9.84024 | 0.003 | 238.0 |
| 2026-02-20T01:06 | 54.47466 | 9.84024 | 0.001 | 191.0 |
| 2026-02-20T01:16 | 54.47466 | 9.84026 | 0.004 | 122.8 |
| 2026-02-20T01:26 | 54.47467 | 9.84025 | 0.005 | 338.0 |
| 2026-02-20T01:36 | 54.47467 | 9.84025 | 0.002 | 157.4 |
| 2026-02-20T01:46 | 54.47468 | 9.84026 | 0.005 | 6.4 |
| 2026-02-20T01:56 | 54.47466 | 9.84025 | 0.008 | 192.5 |
| 2026-02-20T02:06 | 54.47467 | 9.84026 | 0.007 | 11.0 |
| 2026-02-20T02:16 | 54.47467 | 9.84026 | 0.002 | 163.8 |
| 2026-02-20T02:26 | 54.47468 | 9.84026 | 0.002 | 0.0 |
Only the first 2000 rows were shown. To view the complete dataset, download it as tab-delimited text. You can still view the full matrix in your browser, but be aware that this may crash the browser due to the huge size.
